<?xml version='1.0' encoding='UTF-8'?>
<gpx version="1.1" creator="https://www.komoot.de" xmlns="http://www.topografix.com/GPX/1/1" xmlns:xsi="http://www.w3.org/2001/XMLSchema-instance" xsi:schemaLocation="http://www.topografix.com/GPX/1/1 http://www.topografix.com/GPX/1/1/gpx.xsd">
  <metadata>
    <name>RTCN Snerttocht 65 km abcoude</name>
    <author>
      <link href="https://www.komoot.de">
        <text>komoot</text>
        <type>text/html</type>
      </link>
    </author>
  </metadata>
  <trk>
    <name>RTCN Snerttocht 65 km abcoude</name>
    <trkseg>
      <trkpt lat="52.132726" lon="4.762964">
        <ele>-0.774077</ele>
        <time>2026-02-17T17:10:07.358Z</time>
      </trkpt>
      <trkpt lat="52.132814" lon="4.763143">
        <ele>-0.774077</ele>
        <time>2026-02-17T17:10:10.127Z</time>
      </trkpt>
      <trkpt lat="52.132968" lon="4.763456">
        <ele>-0.774077</ele>
        <time>2026-02-17T17:10:14.892Z</time>
      </trkpt>
      <trkpt lat="52.133001" lon="4.763528">
        <ele>-0.774077</ele>
        <time>2026-02-17T17:10:16.030Z</time>
      </trkpt>
      <trkpt lat="52.133199" lon="4.763873">
        <ele>-0.774077</ele>
        <time>2026-02-17T17:10:21.751Z</time>
      </trkpt>
      <trkpt lat="52.133226" lon="4.763918">
        <ele>-0.774077</ele>
        <time>2026-02-17T17:10:22.510Z</time>
      </trkpt>
      <trkpt lat="52.133456" lon="4.764302">
        <ele>-0.788523</ele>
        <time>2026-02-17T17:10:29.077Z</time>
      </trkpt>
      <trkpt lat="52.133537" lon="4.764438">
        <ele>-0.796894</ele>
        <time>2026-02-17T17:10:31.398Z</time>
      </trkpt>
      <trkpt lat="52.133659" lon="4.764591">
        <ele>-0.807975</ele>
        <time>2026-02-17T17:10:34.503Z</time>
      </trkpt>
      <trkpt lat="52.134311" lon="4.765224">
        <ele>-0.862600</ele>
        <time>2026-02-17T17:10:49.594Z</time>
      </trkpt>
      <trkpt lat="52.134794" lon="4.765634">
        <ele>-0.901797</ele>
        <time>2026-02-17T17:11:00.571Z</time>
      </trkpt>
      <trkpt lat="52.134871" lon="4.765699">
        <ele>-0.909451</ele>
        <time>2026-02-17T17:11:02.311Z</time>
      </trkpt>
      <trkpt lat="52.134905" lon="4.765728">
        <ele>-0.913077</ele>
        <time>2026-02-17T17:11:03.096Z</time>
      </trkpt>
      <trkpt lat="52.135289" lon="4.765926">
        <ele>-0.951138</ele>
        <time>2026-02-17T17:11:11.111Z</time>
      </trkpt>
      <trkpt lat="52.135842" lon="4.766196">
        <ele>-1.005690</ele>
        <time>2026-02-17T17:11:22.584Z</time>
      </trkpt>
      <trkpt lat="52.136032" lon="4.766290">
        <ele>-1.024453</ele>
        <time>2026-02-17T17:11:26.597Z</time>
      </trkpt>
      <trkpt lat="52.136241" lon="4.766402">
        <ele>-1.045244</ele>
        <time>2026-02-17T17:11:31.044Z</time>
      </trkpt>
      <trkpt lat="52.136380" lon="4.766475">
        <ele>-1.059044</ele>
        <time>2026-02-17T17:11:33.960Z</time>
      </trkpt>
      <trkpt lat="52.136592" lon="4.766588">
        <ele>-1.093732</ele>
        <time>2026-02-17T17:11:38.269Z</time>
      </trkpt>
      <trkpt lat="52.136639" lon="4.766611">
        <ele>-1.107885</ele>
        <time>2026-02-17T17:11:39.220Z</time>
      </trkpt>
      <trkpt lat="52.136838" lon="4.766707">
        <ele>-1.167741</ele>
        <time>2026-02-17T17:11:43.221Z</time>
      </trkpt>
      <trkpt lat="52.137017" lon="4.766794">
        <ele>-1.221614</ele>
        <time>2026-02-17T17:11:46.822Z</time>
      </trkpt>
      <trkpt lat="52.137027" lon="4.766800">
        <ele>-1.224688</ele>
        <time>2026-02-17T17:11:47.030Z</time>
      </trkpt>
      <trkpt lat="52.137180" lon="4.766877">
        <ele>-1.270871</ele>
        <time>2026-02-17T17:11:50.148Z</time>
      </trkpt>
      <trkpt lat="52.137249" lon="4.766911">
        <ele>-1.291662</ele>
        <time>2026-02-17T17:11:51.527Z</time>
      </trkpt>
      <trkpt lat="52.137395" lon="4.766985">
        <ele>-1.335759</ele>
        <time>2026-02-17T17:11:54.396Z</time>
      </trkpt>
      <trkpt lat="52.137492" lon="4.767033">
        <ele>-1.364997</ele>
        <time>2026-02-17T17:11:56.266Z</time>
      </trkpt>
      <trkpt lat="52.137619" lon="4.767097">
        <ele>-1.403337</ele>
        <time>2026-02-17T17:11:58.718Z</time>
      </trkpt>
      <trkpt lat="52.137697" lon="4.767136">
        <ele>-1.426868</ele>
        <time>2026-02-17T17:12:00.213Z</time>
      </trkpt>
      <trkpt lat="52.138196" lon="4.767383">
        <ele>-1.577278</ele>
        <time>2026-02-17T17:12:10.038Z</time>
      </trkpt>
      <trkpt lat="52.138605" lon="4.767595">
        <ele>-1.579679</ele>
        <time>2026-02-17T17:12:18.420Z</time>
      </trkpt>
      <trkpt lat="52.139087" lon="4.767849">
        <ele>-1.562826</ele>
        <time>2026-02-17T17:12:28.830Z</time>
      </trkpt>
      <trkpt lat="52.139183" lon="4.767905">
        <ele>-1.559434</ele>
        <time>2026-02-17T17:12:30.883Z</time>
      </trkpt>
      <trkpt lat="52.139325" lon="4.767986">
        <ele>-1.554429</ele>
        <time>2026-02-17T17:12:33.896Z</time>
      </trkpt>
      <trkpt lat="52.139504" lon="4.768092">
        <ele>-1.548093</ele>
        <time>2026-02-17T17:12:37.764Z</time>
      </trkpt>
      <trkpt lat="52.139841" lon="4.768296">
        <ele>-1.536133</ele>
        <time>2026-02-17T17:12:45.626Z</time>
      </trkpt>
      <trkpt lat="52.140168" lon="4.768555">
        <ele>-1.484481</ele>
        <time>2026-02-17T17:12:53.432Z</time>
      </trkpt>
      <trkpt lat="52.140409" lon="4.768805">
        <ele>-1.429997</ele>
        <time>2026-02-17T17:12:59.424Z</time>
      </trkpt>
      <trkpt lat="52.140748" lon="4.769156">
        <ele>-1.353399</ele>
        <time>2026-02-17T17:13:07.683Z</time>
      </trkpt>
      <trkpt lat="52.140865" lon="4.769284">
        <ele>-1.326524</ele>
        <time>2026-02-17T17:13:10.607Z</time>
      </trkpt>
      <trkpt lat="52.141382" lon="4.769843">
        <ele>-1.208197</ele>
        <time>2026-02-17T17:13:23.742Z</time>
      </trkpt>
      <trkpt lat="52.141906" lon="4.770411">
        <ele>-1.145727</ele>
        <time>2026-02-17T17:13:36.793Z</time>
      </trkpt>
      <trkpt lat="52.142087" lon="4.770607">
        <ele>-1.127849</ele>
        <time>2026-02-17T17:13:41.259Z</time>
      </trkpt>
      <trkpt lat="52.142239" lon="4.770773">
        <ele>-1.112796</ele>
        <time>2026-02-17T17:13:45.041Z</time>
      </trkpt>
      <trkpt lat="52.143000" lon="4.771604">
        <ele>-1.044643</ele>
        <time>2026-02-17T17:14:03.736Z</time>
      </trkpt>
      <trkpt lat="52.143098" lon="4.771706">
        <ele>-1.052372</ele>
        <time>2026-02-17T17:14:06.050Z</time>
      </trkpt>
      <trkpt lat="52.143991" lon="4.772627">
        <ele>-1.122618</ele>
        <time>2026-02-17T17:14:27.215Z</time>
      </trkpt>
      <trkpt lat="52.144553" lon="4.773200">
        <ele>-1.179729</ele>
        <time>2026-02-17T17:14:40.128Z</time>
      </trkpt>
      <trkpt lat="52.145034" lon="4.773719">
        <ele>-1.305709</ele>
        <time>2026-02-17T17:14:51.686Z</time>
      </trkpt>
      <trkpt lat="52.145210" lon="4.773910">
        <ele>-1.351886</ele>
        <time>2026-02-17T17:14:55.953Z</time>
      </trkpt>
      <trkpt lat="52.145493" lon="4.774211">
        <ele>-1.425686</ele>
        <time>2026-02-17T17:15:02.735Z</time>
      </trkpt>
      <trkpt lat="52.145901" lon="4.774621">
        <ele>-1.530363</ele>
        <time>2026-02-17T17:15:11.883Z</time>
      </trkpt>
      <trkpt lat="52.146166" lon="4.774880">
        <ele>-1.755713</ele>
        <time>2026-02-17T17:15:17.611Z</time>
      </trkpt>
      <trkpt lat="52.146296" lon="4.774848">
        <ele>-1.887238</ele>
        <time>2026-02-17T17:15:20.016Z</time>
      </trkpt>
      <trkpt lat="52.146325" lon="4.774809">
        <ele>-1.924853</ele>
        <time>2026-02-17T17:15:20.708Z</time>
      </trkpt>
      <trkpt lat="52.146628" lon="4.774234">
        <ele>-2.390124</ele>
        <time>2026-02-17T17:15:28.800Z</time>
      </trkpt>
      <trkpt lat="52.146825" lon="4.773908">
        <ele>-2.670995</ele>
        <time>2026-02-17T17:15:32.093Z</time>
      </trkpt>
      <trkpt lat="52.147079" lon="4.773652">
        <ele>-2.969764</ele>
        <time>2026-02-17T17:15:35.558Z</time>
      </trkpt>
      <trkpt lat="52.147162" lon="4.773595">
        <ele>-3.059868</ele>
        <time>2026-02-17T17:15:36.599Z</time>
      </trkpt>
      <trkpt lat="52.147644" lon="4.773278">
        <ele>-3.432902</ele>
        <time>2026-02-17T17:15:42.648Z</time>
      </trkpt>
      <trkpt lat="52.147799" lon="4.773179">
        <ele>-3.491519</ele>
        <time>2026-02-17T17:15:44.740Z</time>
      </trkpt>
      <trkpt lat="52.147863" lon="4.773137">
        <ele>-3.515811</ele>
        <time>2026-02-17T17:15:45.634Z</time>
      </trkpt>
      <trkpt lat="52.148058" lon="4.773015">
        <ele>-3.589355</ele>
        <time>2026-02-17T17:15:48.368Z</time>
      </trkpt>
      <trkpt lat="52.148075" lon="4.773004">
        <ele>-3.595796</ele>
        <time>2026-02-17T17:15:48.611Z</time>
      </trkpt>
      <trkpt lat="52.148257" lon="4.772896">
        <ele>-3.663993</ele>
        <time>2026-02-17T17:15:51.268Z</time>
      </trkpt>
      <trkpt lat="52.148394" lon="4.772859">
        <ele>-3.712887</ele>
        <time>2026-02-17T17:15:53.976Z</time>
      </trkpt>
      <trkpt lat="52.148439" lon="4.772839">
        <ele>-3.729310</ele>
        <time>2026-02-17T17:15:54.893Z</time>
      </trkpt>
      <trkpt lat="52.148483" lon="4.772903">
        <ele>-3.750076</ele>
        <time>2026-02-17T17:15:55.782Z</time>
      </trkpt>
      <trkpt lat="52.148541" lon="4.772914">
        <ele>-3.770635</ele>
        <time>2026-02-17T17:15:56.766Z</time>
      </trkpt>
      <trkpt lat="52.148555" lon="4.772964">
        <ele>-3.782509</ele>
        <time>2026-02-17T17:15:57.250Z</time>
      </trkpt>
      <trkpt lat="52.148637" lon="4.773205">
        <ele>-3.842046</ele>
        <time>2026-02-17T17:15:59.974Z</time>
      </trkpt>
      <trkpt lat="52.148842" lon="4.774047">
        <ele>-3.936321</ele>
        <time>2026-02-17T17:16:08.676Z</time>
      </trkpt>
      <trkpt lat="52.148873" lon="4.774176">
        <ele>-3.907146</ele>
        <time>2026-02-17T17:16:09.850Z</time>
      </trkpt>
      <trkpt lat="52.148947" lon="4.774468">
        <ele>-3.840615</ele>
        <time>2026-02-17T17:16:13.071Z</time>
      </trkpt>
      <trkpt lat="52.148959" lon="4.774520">
        <ele>-3.828915</ele>
        <time>2026-02-17T17:16:13.686Z</time>
      </trkpt>
      <trkpt lat="52.149054" lon="4.774921">
        <ele>-3.738393</ele>
        <time>2026-02-17T17:16:18.361Z</time>
      </trkpt>
      <trkpt lat="52.149087" lon="4.775063">
        <ele>-3.706416</ele>
        <time>2026-02-17T17:16:19.886Z</time>
      </trkpt>
      <trkpt lat="52.149134" lon="4.775262">
        <ele>-3.661511</ele>
        <time>2026-02-17T17:16:22.063Z</time>
      </trkpt>
      <trkpt lat="52.149195" lon="4.775507">
        <ele>-3.605831</ele>
        <time>2026-02-17T17:16:24.669Z</time>
      </trkpt>
      <trkpt lat="52.149239" lon="4.775684">
        <ele>-3.565614</ele>
        <time>2026-02-17T17:16:26.567Z</time>
      </trkpt>
      <trkpt lat="52.149264" lon="4.775786">
        <ele>-3.542483</ele>
        <time>2026-02-17T17:16:27.559Z</time>
      </trkpt>
      <trkpt lat="52.149303" lon="4.775941">
        <ele>-3.507204</ele>
        <time>2026-02-17T17:16:29.309Z</time>
      </trkpt>
      <trkpt lat="52.149450" lon="4.776394">
        <ele>-3.399288</ele>
        <time>2026-02-17T17:16:34.183Z</time>
      </trkpt>
      <trkpt lat="52.149721" lon="4.776629">
        <ele>-3.304009</ele>
        <time>2026-02-17T17:16:38.876Z</time>
      </trkpt>
      <trkpt lat="52.149775" lon="4.776670">
        <ele>-3.286304</ele>
        <time>2026-02-17T17:16:39.750Z</time>
      </trkpt>
      <trkpt lat="52.150291" lon="4.777057">
        <ele>-3.117492</ele>
        <time>2026-02-17T17:16:49.449Z</time>
      </trkpt>
      <trkpt lat="52.150394" lon="4.777173">
        <ele>-3.080283</ele>
        <time>2026-02-17T17:16:51.485Z</time>
      </trkpt>
      <trkpt lat="52.150417" lon="4.777204">
        <ele>-3.071413</ele>
        <time>2026-02-17T17:16:51.952Z</time>
      </trkpt>
      <trkpt lat="52.150494" lon="4.777314">
        <ele>-3.040982</ele>
        <time>2026-02-17T17:16:53.482Z</time>
      </trkpt>
      <trkpt lat="52.150712" lon="4.777639">
        <ele>-2.953176</ele>
        <time>2026-02-17T17:16:58.017Z</time>
      </trkpt>
      <trkpt lat="52.150777" lon="4.777737">
        <ele>-2.926860</ele>
        <time>2026-02-17T17:16:59.460Z</time>
      </trkpt>
      <trkpt lat="52.151088" lon="4.778184">
        <ele>-2.819587</ele>
        <time>2026-02-17T17:17:06.075Z</time>
      </trkpt>
      <trkpt lat="52.151146" lon="4.778271">
        <ele>-2.808254</ele>
        <time>2026-02-17T17:17:07.336Z</time>
      </trkpt>
      <trkpt lat="52.151386" lon="4.778632">
        <ele>-2.761299</ele>
        <time>2026-02-17T17:17:12.475Z</time>
      </trkpt>
      <trkpt lat="52.151718" lon="4.779146">
        <ele>-2.695464</ele>
        <time>2026-02-17T17:17:19.636Z</time>
      </trkpt>
      <trkpt lat="52.151969" lon="4.779519">
        <ele>-2.646628</ele>
        <time>2026-02-17T17:17:24.785Z</time>
      </trkpt>
      <trkpt lat="52.152140" lon="4.779860">
        <ele>-2.607778</ele>
        <time>2026-02-17T17:17:28.849Z</time>
      </trkpt>
      <trkpt lat="52.152889" lon="4.781855">
        <ele>-2.286017</ele>
        <time>2026-02-17T17:17:50.469Z</time>
      </trkpt>
      <trkpt lat="52.153266" lon="4.782862">
        <ele>-2.072684</ele>
        <time>2026-02-17T17:18:02.562Z</time>
      </trkpt>
      <trkpt lat="52.153445" lon="4.783544">
        <ele>-1.831410</ele>
        <time>2026-02-17T17:18:10.763Z</time>
      </trkpt>
      <trkpt lat="52.153487" lon="4.783749">
        <ele>-1.761112</ele>
        <time>2026-02-17T17:18:13.143Z</time>
      </trkpt>
      <trkpt lat="52.153503" lon="4.783820">
        <ele>-1.736510</ele>
        <time>2026-02-17T17:18:14.190Z</time>
      </trkpt>
      <trkpt lat="52.153287" lon="4.783953">
        <ele>-1.614102</ele>
        <time>2026-02-17T17:18:19.556Z</time>
      </trkpt>
      <trkpt lat="52.153203" lon="4.784152">
        <ele>-1.535536</ele>
        <time>2026-02-17T17:18:22.903Z</time>
      </trkpt>
      <trkpt lat="52.153206" lon="4.784287">
        <ele>-1.491596</ele>
        <time>2026-02-17T17:18:24.718Z</time>
      </trkpt>
      <trkpt lat="52.153507" lon="4.784930">
        <ele>-1.228530</ele>
        <time>2026-02-17T17:18:35.778Z</time>
      </trkpt>
      <trkpt lat="52.154466" lon="4.786838">
        <ele>-1.057296</ele>
        <time>2026-02-17T17:19:06.803Z</time>
      </trkpt>
      <trkpt lat="52.154535" lon="4.787043">
        <ele>-1.043856</ele>
        <time>2026-02-17T17:19:09.729Z</time>
      </trkpt>
      <trkpt lat="52.154790" lon="4.787747">
        <ele>-1.075848</ele>
        <time>2026-02-17T17:19:19.780Z</time>
      </trkpt>
      <trkpt lat="52.154857" lon="4.787821">
        <ele>-1.090143</ele>
        <time>2026-02-17T17:19:21.379Z</time>
      </trkpt>
      <trkpt lat="52.155047" lon="4.788415">
        <ele>-1.162733</ele>
        <time>2026-02-17T17:19:29.375Z</time>
      </trkpt>
      <trkpt lat="52.155784" lon="4.790725">
        <ele>-1.325185</ele>
        <time>2026-02-17T17:20:00.243Z</time>
      </trkpt>
      <trkpt lat="52.156479" lon="4.793111">
        <ele>-1.309244</ele>
        <time>2026-02-17T17:20:34.204Z</time>
      </trkpt>
      <trkpt lat="52.156605" lon="4.793550">
        <ele>-1.323174</ele>
        <time>2026-02-17T17:20:40.168Z</time>
      </trkpt>
      <trkpt lat="52.156936" lon="4.794703">
        <ele>-1.359761</ele>
        <time>2026-02-17T17:20:55.420Z</time>
      </trkpt>
      <trkpt lat="52.157355" lon="4.796170">
        <ele>-1.367188</ele>
        <time>2026-02-17T17:21:15.363Z</time>
      </trkpt>
      <trkpt lat="52.157830" lon="4.797868">
        <ele>-1.357184</ele>
        <time>2026-02-17T17:21:32.574Z</time>
      </trkpt>
      <trkpt lat="52.158075" lon="4.798610">
        <ele>-1.405417</ele>
        <time>2026-02-17T17:21:40.096Z</time>
      </trkpt>
      <trkpt lat="52.158197" lon="4.799199">
        <ele>-1.441002</ele>
        <time>2026-02-17T17:21:45.569Z</time>
      </trkpt>
      <trkpt lat="52.158701" lon="4.801008">
        <ele>-1.517547</ele>
        <time>2026-02-17T17:22:03.076Z</time>
      </trkpt>
      <trkpt lat="52.159239" lon="4.802843">
        <ele>-1.498300</ele>
        <time>2026-02-17T17:22:21.632Z</time>
      </trkpt>
      <trkpt lat="52.159503" lon="4.803778">
        <ele>-1.424527</ele>
        <time>2026-02-17T17:22:31.299Z</time>
      </trkpt>
      <trkpt lat="52.160011" lon="4.805587">
        <ele>-1.220684</ele>
        <time>2026-02-17T17:22:50.338Z</time>
      </trkpt>
      <trkpt lat="52.160252" lon="4.806410">
        <ele>-1.133810</ele>
        <time>2026-02-17T17:22:59.015Z</time>
      </trkpt>
      <trkpt lat="52.160480" lon="4.807187">
        <ele>-1.054151</ele>
        <time>2026-02-17T17:23:07.179Z</time>
      </trkpt>
      <trkpt lat="52.160533" lon="4.807373">
        <ele>-1.035183</ele>
        <time>2026-02-17T17:23:09.113Z</time>
      </trkpt>
      <trkpt lat="52.160553" lon="4.807459">
        <ele>-1.026677</ele>
        <time>2026-02-17T17:23:09.986Z</time>
      </trkpt>
      <trkpt lat="52.160558" lon="4.807479">
        <ele>-1.024680</ele>
        <time>2026-02-17T17:23:10.189Z</time>
      </trkpt>
      <trkpt lat="52.160532" lon="4.807614">
        <ele>-1.011593</ele>
        <time>2026-02-17T17:23:11.512Z</time>
      </trkpt>
      <trkpt lat="52.161476" lon="4.810932">
        <ele>-0.739666</ele>
        <time>2026-02-17T17:23:45.953Z</time>
      </trkpt>
      <trkpt lat="52.161774" lon="4.812112">
        <ele>-0.765299</ele>
        <time>2026-02-17T17:23:57.521Z</time>
      </trkpt>
      <trkpt lat="52.162254" lon="4.814108">
        <ele>-0.842098</ele>
        <time>2026-02-17T17:24:16.566Z</time>
      </trkpt>
      <trkpt lat="52.162664" lon="4.815808">
        <ele>-0.863798</ele>
        <time>2026-02-17T17:24:33.290Z</time>
      </trkpt>
      <trkpt lat="52.163535" lon="4.819429">
        <ele>-1.091174</ele>
        <time>2026-02-17T17:25:07.511Z</time>
      </trkpt>
      <trkpt lat="52.163547" lon="4.819475">
        <ele>-1.091245</ele>
        <time>2026-02-17T17:25:07.940Z</time>
      </trkpt>
      <trkpt lat="52.163827" lon="4.820597">
        <ele>-1.092964</ele>
        <time>2026-02-17T17:25:18.647Z</time>
      </trkpt>
      <trkpt lat="52.163946" lon="4.821500">
        <ele>-1.094275</ele>
        <time>2026-02-17T17:25:27.084Z</time>
      </trkpt>
      <trkpt lat="52.164085" lon="4.823041">
        <ele>-0.957202</ele>
        <time>2026-02-17T17:25:41.923Z</time>
      </trkpt>
      <trkpt lat="52.164109" lon="4.823316">
        <ele>-0.915676</ele>
        <time>2026-02-17T17:25:44.883Z</time>
      </trkpt>
      <trkpt lat="52.164116" lon="4.823434">
        <ele>-0.897953</ele>
        <time>2026-02-17T17:25:46.196Z</time>
      </trkpt>
      <trkpt lat="52.164174" lon="4.824277">
        <ele>-0.771138</ele>
        <time>2026-02-17T17:25:54.576Z</time>
      </trkpt>
      <trkpt lat="52.164217" lon="4.824908">
        <ele>-0.676225</ele>
        <time>2026-02-17T17:26:00.644Z</time>
      </trkpt>
      <trkpt lat="52.164226" lon="4.825076">
        <ele>-0.661783</ele>
        <time>2026-02-17T17:26:02.757Z</time>
      </trkpt>
      <trkpt lat="52.164250" lon="4.825355">
        <ele>-0.697847</ele>
        <time>2026-02-17T17:26:06.370Z</time>
      </trkpt>
      <trkpt lat="52.164269" lon="4.825594">
        <ele>-0.728697</ele>
        <time>2026-02-17T17:26:09.383Z</time>
      </trkpt>
      <trkpt lat="52.164288" lon="4.825821">
        <ele>-0.758025</ele>
        <time>2026-02-17T17:26:12.193Z</time>
      </trkpt>
      <trkpt lat="52.164305" lon="4.825998">
        <ele>-0.780958</ele>
        <time>2026-02-17T17:26:14.372Z</time>
      </trkpt>
      <trkpt lat="52.164338" lon="4.826394">
        <ele>-0.832116</ele>
        <time>2026-02-17T17:26:19.235Z</time>
      </trkpt>
      <trkpt lat="52.164344" lon="4.826456">
        <ele>-0.840150</ele>
        <time>2026-02-17T17:26:19.932Z</time>
      </trkpt>
      <trkpt lat="52.164443" lon="4.827687">
        <ele>-0.999078</ele>
        <time>2026-02-17T17:26:29.892Z</time>
      </trkpt>
      <trkpt lat="52.164494" lon="4.828288">
        <ele>-1.051657</ele>
        <time>2026-02-17T17:26:35.292Z</time>
      </trkpt>
      <trkpt lat="52.164640" lon="4.830006">
        <ele>-1.148716</ele>
        <time>2026-02-17T17:26:50.726Z</time>
      </trkpt>
      <trkpt lat="52.164654" lon="4.830161">
        <ele>-1.157483</ele>
        <time>2026-02-17T17:26:52.193Z</time>
      </trkpt>
      <trkpt lat="52.164660" lon="4.830230">
        <ele>-1.161383</ele>
        <time>2026-02-17T17:26:52.844Z</time>
      </trkpt>
      <trkpt lat="52.164837" lon="4.832656">
        <ele>-1.185443</ele>
        <time>2026-02-17T17:27:15.271Z</time>
      </trkpt>
      <trkpt lat="52.164973" lon="4.834018">
        <ele>-1.149580</ele>
        <time>2026-02-17T17:27:27.735Z</time>
      </trkpt>
      <trkpt lat="52.165077" lon="4.835164">
        <ele>-1.022883</ele>
        <time>2026-02-17T17:27:38.571Z</time>
      </trkpt>
      <trkpt lat="52.165226" lon="4.837550">
        <ele>-0.837019</ele>
        <time>2026-02-17T17:28:01.801Z</time>
      </trkpt>
      <trkpt lat="52.165330" lon="4.838589">
        <ele>-0.812093</ele>
        <time>2026-02-17T17:28:11.399Z</time>
      </trkpt>
      <trkpt lat="52.165398" lon="4.839382">
        <ele>-0.793135</ele>
        <time>2026-02-17T17:28:18.473Z</time>
      </trkpt>
      <trkpt lat="52.165561" lon="4.841862">
        <ele>-0.878140</ele>
        <time>2026-02-17T17:28:40.604Z</time>
      </trkpt>
      <trkpt lat="52.165667" lon="4.843196">
        <ele>-0.988171</ele>
        <time>2026-02-17T17:28:52.906Z</time>
      </trkpt>
      <trkpt lat="52.165769" lon="4.844503">
        <ele>-1.145165</ele>
        <time>2026-02-17T17:29:04.638Z</time>
      </trkpt>
      <trkpt lat="52.165807" lon="4.845055">
        <ele>-1.211353</ele>
        <time>2026-02-17T17:29:09.282Z</time>
      </trkpt>
      <trkpt lat="52.165824" lon="4.845274">
        <ele>-1.237656</ele>
        <time>2026-02-17T17:29:11.098Z</time>
      </trkpt>
      <trkpt lat="52.166013" lon="4.847611">
        <ele>-1.747889</ele>
        <time>2026-02-17T17:29:30.154Z</time>
      </trkpt>
      <trkpt lat="52.166188" lon="4.850094">
        <ele>-1.794705</ele>
        <time>2026-02-17T17:29:52.664Z</time>
      </trkpt>
      <trkpt lat="52.166299" lon="4.851255">
        <ele>-1.721194</ele>
        <time>2026-02-17T17:30:04.291Z</time>
      </trkpt>
      <trkpt lat="52.166483" lon="4.851190">
        <ele>-1.677949</ele>
        <time>2026-02-17T17:30:07.383Z</time>
      </trkpt>
      <trkpt lat="52.166602" lon="4.851712">
        <ele>-1.599490</ele>
        <time>2026-02-17T17:30:14.887Z</time>
      </trkpt>
      <trkpt lat="52.166522" lon="4.851773">
        <ele>-1.579204</ele>
        <time>2026-02-17T17:30:16.819Z</time>
      </trkpt>
      <trkpt lat="52.166481" lon="4.851779">
        <ele>-1.569749</ele>
        <time>2026-02-17T17:30:17.738Z</time>
      </trkpt>
      <trkpt lat="52.166413" lon="4.851868">
        <ele>-1.549719</ele>
        <time>2026-02-17T17:30:19.625Z</time>
      </trkpt>
      <trkpt lat="52.166346" lon="4.852071">
        <ele>-1.517241</ele>
        <time>2026-02-17T17:30:22.702Z</time>
      </trkpt>
      <trkpt lat="52.165912" lon="4.853005">
        <ele>-1.352154</ele>
        <time>2026-02-17T17:30:37.809Z</time>
      </trkpt>
      <trkpt lat="52.165541" lon="4.853636">
        <ele>-1.430461</ele>
        <time>2026-02-17T17:30:48.295Z</time>
      </trkpt>
      <trkpt lat="52.165305" lon="4.853916">
        <ele>-1.520730</ele>
        <time>2026-02-17T17:30:53.815Z</time>
      </trkpt>
      <trkpt lat="52.164919" lon="4.854067">
        <ele>-1.643497</ele>
        <time>2026-02-17T17:31:01.185Z</time>
      </trkpt>
      <trkpt lat="52.163647" lon="4.854447">
        <ele>-1.930998</ele>
        <time>2026-02-17T17:31:25.828Z</time>
      </trkpt>
      <trkpt lat="52.163406" lon="4.854520">
        <ele>-1.957339</ele>
        <time>2026-02-17T17:31:30.672Z</time>
      </trkpt>
      <trkpt lat="52.162508" lon="4.854794">
        <ele>-2.055512</ele>
        <time>2026-02-17T17:31:49.180Z</time>
      </trkpt>
      <trkpt lat="52.161819" lon="4.855004">
        <ele>-1.987164</ele>
        <time>2026-02-17T17:32:03.726Z</time>
      </trkpt>
      <trkpt lat="52.161628" lon="4.855062">
        <ele>-1.962887</ele>
        <time>2026-02-17T17:32:07.778Z</time>
      </trkpt>
      <trkpt lat="52.160764" lon="4.855321">
        <ele>-1.853118</ele>
        <time>2026-02-17T17:32:26.172Z</time>
      </trkpt>
      <trkpt lat="52.156014" lon="4.856775">
        <ele>-1.700935</ele>
        <time>2026-02-17T17:34:03.990Z</time>
      </trkpt>
      <trkpt lat="52.155903" lon="4.856808">
        <ele>-1.691026</ele>
        <time>2026-02-17T17:34:06.331Z</time>
      </trkpt>
      <trkpt lat="52.155461" lon="4.856976">
        <ele>-1.651168</ele>
        <time>2026-02-17T17:34:15.874Z</time>
      </trkpt>
      <trkpt lat="52.155328" lon="4.857056">
        <ele>-1.633642</ele>
        <time>2026-02-17T17:34:18.871Z</time>
      </trkpt>
      <trkpt lat="52.155251" lon="4.857142">
        <ele>-1.612928</ele>
        <time>2026-02-17T17:34:20.870Z</time>
      </trkpt>
      <trkpt lat="52.155225" lon="4.857243">
        <ele>-1.598016</ele>
        <time>2026-02-17T17:34:22.290Z</time>
      </trkpt>
      <trkpt lat="52.155199" lon="4.857877">
        <ele>-1.511504</ele>
        <time>2026-02-17T17:34:30.611Z</time>
      </trkpt>
      <trkpt lat="52.155029" lon="4.858748">
        <ele>-1.387061</ele>
        <time>2026-02-17T17:34:42.612Z</time>
      </trkpt>
      <trkpt lat="52.154840" lon="4.860051">
        <ele>-1.243850</ele>
        <time>2026-02-17T17:34:59.807Z</time>
      </trkpt>
      <trkpt lat="52.154647" lon="4.861851">
        <ele>-1.250056</ele>
        <time>2026-02-17T17:35:22.253Z</time>
      </trkpt>
      <trkpt lat="52.154488" lon="4.863220">
        <ele>-1.238862</ele>
        <time>2026-02-17T17:35:39.357Z</time>
      </trkpt>
      <trkpt lat="52.154261" lon="4.863812">
        <ele>-1.221696</ele>
        <time>2026-02-17T17:35:48.052Z</time>
      </trkpt>
      <trkpt lat="52.154132" lon="4.864209">
        <ele>-1.210649</ele>
        <time>2026-02-17T17:35:53.705Z</time>
      </trkpt>
      <trkpt lat="52.154103" lon="4.864354">
        <ele>-1.206899</ele>
        <time>2026-02-17T17:35:55.626Z</time>
      </trkpt>
      <trkpt lat="52.154090" lon="4.864467">
        <ele>-1.204072</ele>
        <time>2026-02-17T17:35:57.067Z</time>
      </trkpt>
      <trkpt lat="52.154083" lon="4.864539">
        <ele>-1.202279</ele>
        <time>2026-02-17T17:35:57.983Z</time>
      </trkpt>
      <trkpt lat="52.154071" lon="4.864809">
        <ele>-1.195623</ele>
        <time>2026-02-17T17:36:01.397Z</time>
      </trkpt>
      <trkpt lat="52.154124" lon="4.865235">
        <ele>-1.184934</ele>
        <time>2026-02-17T17:36:06.894Z</time>
      </trkpt>
      <trkpt lat="52.154333" lon="4.865891">
        <ele>-1.249421</ele>
        <time>2026-02-17T17:36:16.254Z</time>
      </trkpt>
      <trkpt lat="52.154676" lon="4.867032">
        <ele>-1.402530</ele>
        <time>2026-02-17T17:36:31.439Z</time>
      </trkpt>
      <trkpt lat="52.155153" lon="4.868758">
        <ele>-1.641036</ele>
        <time>2026-02-17T17:36:53.348Z</time>
      </trkpt>
      <trkpt lat="52.155329" lon="4.868997">
        <ele>-1.690869</ele>
        <time>2026-02-17T17:36:57.750Z</time>
      </trkpt>
      <trkpt lat="52.155530" lon="4.869748">
        <ele>-1.800223</ele>
        <time>2026-02-17T17:37:07.638Z</time>
      </trkpt>
      <trkpt lat="52.155621" lon="4.869974">
        <ele>-1.836302</ele>
        <time>2026-02-17T17:37:10.926Z</time>
      </trkpt>
      <trkpt lat="52.155651" lon="4.870072">
        <ele>-1.850919</ele>
        <time>2026-02-17T17:37:12.251Z</time>
      </trkpt>
      <trkpt lat="52.155696" lon="4.870437">
        <ele>-1.900607</ele>
        <time>2026-02-17T17:37:16.773Z</time>
      </trkpt>
      <trkpt lat="52.155942" lon="4.871316">
        <ele>-1.882408</ele>
        <time>2026-02-17T17:37:28.597Z</time>
      </trkpt>
      <trkpt lat="52.156176" lon="4.872151">
        <ele>-1.831992</ele>
        <time>2026-02-17T17:37:40.126Z</time>
      </trkpt>
      <trkpt lat="52.158014" lon="4.878772">
        <ele>-1.151161</ele>
        <time>2026-02-17T17:39:13.447Z</time>
      </trkpt>
      <trkpt lat="52.158080" lon="4.879132">
        <ele>-1.153041</ele>
        <time>2026-02-17T17:39:18.260Z</time>
      </trkpt>
      <trkpt lat="52.158163" lon="4.879425">
        <ele>-1.154655</ele>
        <time>2026-02-17T17:39:22.346Z</time>
      </trkpt>
      <trkpt lat="52.158332" lon="4.880025">
        <ele>-1.157958</ele>
        <time>2026-02-17T17:39:30.576Z</time>
      </trkpt>
      <trkpt lat="52.158438" lon="4.880404">
        <ele>-1.160042</ele>
        <time>2026-02-17T17:39:35.718Z</time>
      </trkpt>
      <trkpt lat="52.158572" lon="4.880792">
        <ele>-1.162269</ele>
        <time>2026-02-17T17:39:41.109Z</time>
      </trkpt>
      <trkpt lat="52.159120" lon="4.882707">
        <ele>-1.198028</ele>
        <time>2026-02-17T17:40:06.470Z</time>
      </trkpt>
      <trkpt lat="52.159439" lon="4.883826">
        <ele>-1.223962</ele>
        <time>2026-02-17T17:40:22.158Z</time>
      </trkpt>
      <trkpt lat="52.159534" lon="4.884308">
        <ele>-1.232211</ele>
        <time>2026-02-17T17:40:28.611Z</time>
      </trkpt>
      <trkpt lat="52.159642" lon="4.884810">
        <ele>-1.240053</ele>
        <time>2026-02-17T17:40:35.344Z</time>
      </trkpt>
      <trkpt lat="52.160338" lon="4.887027">
        <ele>-1.264176</ele>
        <time>2026-02-17T17:41:05.869Z</time>
      </trkpt>
      <trkpt lat="52.161478" lon="4.890300">
        <ele>-1.248001</ele>
        <time>2026-02-17T17:41:52.868Z</time>
      </trkpt>
      <trkpt lat="52.161657" lon="4.891116">
        <ele>-1.256816</ele>
        <time>2026-02-17T17:42:03.457Z</time>
      </trkpt>
      <trkpt lat="52.161752" lon="4.891768">
        <ele>-1.263632</ele>
        <time>2026-02-17T17:42:11.622Z</time>
      </trkpt>
      <trkpt lat="52.161780" lon="4.892194">
        <ele>-1.280245</ele>
        <time>2026-02-17T17:42:16.856Z</time>
      </trkpt>
      <trkpt lat="52.161746" lon="4.893634">
        <ele>-1.347412</ele>
        <time>2026-02-17T17:42:34.544Z</time>
      </trkpt>
      <trkpt lat="52.161762" lon="4.894500">
        <ele>-1.387794</ele>
        <time>2026-02-17T17:42:45.058Z</time>
      </trkpt>
      <trkpt lat="52.161831" lon="4.894491">
        <ele>-1.393053</ele>
        <time>2026-02-17T17:42:46.454Z</time>
      </trkpt>
      <trkpt lat="52.161905" lon="4.894487">
        <ele>-1.398679</ele>
        <time>2026-02-17T17:42:47.886Z</time>
      </trkpt>
      <trkpt lat="52.162016" lon="4.894492">
        <ele>-1.406982</ele>
        <time>2026-02-17T17:42:50.078Z</time>
      </trkpt>
      <trkpt lat="52.162008" lon="4.895627">
        <ele>-1.458681</ele>
        <time>2026-02-17T17:43:03.714Z</time>
      </trkpt>
      <trkpt lat="52.162298" lon="4.905600">
        <ele>-1.754305</ele>
        <time>2026-02-17T17:45:06.032Z</time>
      </trkpt>
      <trkpt lat="52.162269" lon="4.906304">
        <ele>-1.676869</ele>
        <time>2026-02-17T17:45:15.344Z</time>
      </trkpt>
      <trkpt lat="52.162063" lon="4.907665">
        <ele>-1.248416</ele>
        <time>2026-02-17T17:45:34.727Z</time>
      </trkpt>
      <trkpt lat="52.162072" lon="4.908314">
        <ele>-1.050004</ele>
        <time>2026-02-17T17:45:43.998Z</time>
      </trkpt>
      <trkpt lat="52.162166" lon="4.908774">
        <ele>-0.901813</ele>
        <time>2026-02-17T17:45:50.697Z</time>
      </trkpt>
      <trkpt lat="52.162297" lon="4.908695">
        <ele>-0.849103</ele>
        <time>2026-02-17T17:45:53.744Z</time>
      </trkpt>
      <trkpt lat="52.162330" lon="4.908807">
        <ele>-0.849912</ele>
        <time>2026-02-17T17:45:55.399Z</time>
      </trkpt>
      <trkpt lat="52.162353" lon="4.908891">
        <ele>-0.850510</ele>
        <time>2026-02-17T17:45:56.593Z</time>
      </trkpt>
      <trkpt lat="52.162368" lon="4.908950">
        <ele>-0.850926</ele>
        <time>2026-02-17T17:45:57.427Z</time>
      </trkpt>
      <trkpt lat="52.162324" lon="4.909203">
        <ele>-0.852637</ele>
        <time>2026-02-17T17:46:00.814Z</time>
      </trkpt>
      <trkpt lat="52.162307" lon="4.909251">
        <ele>-0.852997</ele>
        <time>2026-02-17T17:46:01.526Z</time>
      </trkpt>
      <trkpt lat="52.162327" lon="4.909337">
        <ele>-0.853596</ele>
        <time>2026-02-17T17:46:02.683Z</time>
      </trkpt>
      <trkpt lat="52.162355" lon="4.909481">
        <ele>-0.854579</ele>
        <time>2026-02-17T17:46:04.584Z</time>
      </trkpt>
      <trkpt lat="52.162449" lon="4.910734">
        <ele>-0.862792</ele>
        <time>2026-02-17T17:46:19.893Z</time>
      </trkpt>
      <trkpt lat="52.162498" lon="4.910988">
        <ele>-0.864525</ele>
        <time>2026-02-17T17:46:22.990Z</time>
      </trkpt>
      <trkpt lat="52.162599" lon="4.911358">
        <ele>-0.867160</ele>
        <time>2026-02-17T17:46:27.668Z</time>
      </trkpt>
      <trkpt lat="52.163293" lon="4.913005">
        <ele>-1.120766</ele>
        <time>2026-02-17T17:46:51.615Z</time>
      </trkpt>
      <trkpt lat="52.163570" lon="4.913955">
        <ele>-1.262825</ele>
        <time>2026-02-17T17:47:04.318Z</time>
      </trkpt>
      <trkpt lat="52.163593" lon="4.914035">
        <ele>-1.284559</ele>
        <time>2026-02-17T17:47:05.386Z</time>
      </trkpt>
      <trkpt lat="52.163661" lon="4.914298">
        <ele>-1.354770</ele>
        <time>2026-02-17T17:47:08.760Z</time>
      </trkpt>
      <trkpt lat="52.164085" lon="4.916023">
        <ele>-1.811923</ele>
        <time>2026-02-17T17:47:29.961Z</time>
      </trkpt>
      <trkpt lat="52.164328" lon="4.916896">
        <ele>-2.016319</ele>
        <time>2026-02-17T17:47:40.970Z</time>
      </trkpt>
      <trkpt lat="52.164439" lon="4.917319">
        <ele>-2.076605</ele>
        <time>2026-02-17T17:47:46.344Z</time>
      </trkpt>
      <trkpt lat="52.164473" lon="4.917450">
        <ele>-2.095243</ele>
        <time>2026-02-17T17:47:48.029Z</time>
      </trkpt>
      <trkpt lat="52.165091" lon="4.919847">
        <ele>-2.412497</ele>
        <time>2026-02-17T17:48:19.292Z</time>
      </trkpt>
      <trkpt lat="52.165676" lon="4.922116">
        <ele>-2.618584</ele>
        <time>2026-02-17T17:48:48.835Z</time>
      </trkpt>
      <trkpt lat="52.165953" lon="4.923192">
        <ele>-2.556171</ele>
        <time>2026-02-17T17:49:03.787Z</time>
      </trkpt>
      <trkpt lat="52.166869" lon="4.926664">
        <ele>-2.139906</ele>
        <time>2026-02-17T17:49:51.781Z</time>
      </trkpt>
      <trkpt lat="52.167163" lon="4.927808">
        <ele>-1.899011</ele>
        <time>2026-02-17T17:50:08.719Z</time>
      </trkpt>
      <trkpt lat="52.167274" lon="4.928155">
        <ele>-1.791035</ele>
        <time>2026-02-17T17:50:14.186Z</time>
      </trkpt>
      <trkpt lat="52.167362" lon="4.928297">
        <ele>-1.735341</ele>
        <time>2026-02-17T17:50:17.057Z</time>
      </trkpt>
      <trkpt lat="52.167627" lon="4.928458">
        <ele>-1.608132</ele>
        <time>2026-02-17T17:50:23.608Z</time>
      </trkpt>
      <trkpt lat="52.167949" lon="4.928663">
        <ele>-1.452639</ele>
        <time>2026-02-17T17:50:31.439Z</time>
      </trkpt>
      <trkpt lat="52.168227" lon="4.928721">
        <ele>-1.326570</ele>
        <time>2026-02-17T17:50:37.442Z</time>
      </trkpt>
      <trkpt lat="52.168267" lon="4.928751">
        <ele>-1.306764</ele>
        <time>2026-02-17T17:50:38.369Z</time>
      </trkpt>
      <trkpt lat="52.168300" lon="4.928975">
        <ele>-1.243206</ele>
        <time>2026-02-17T17:50:41.368Z</time>
      </trkpt>
      <trkpt lat="52.168253" lon="4.929156">
        <ele>-1.209649</ele>
        <time>2026-02-17T17:50:43.891Z</time>
      </trkpt>
      <trkpt lat="52.168202" lon="4.929251">
        <ele>-1.247877</ele>
        <time>2026-02-17T17:50:45.478Z</time>
      </trkpt>
      <trkpt lat="52.168150" lon="4.929358">
        <ele>-1.289213</ele>
        <time>2026-02-17T17:50:47.191Z</time>
      </trkpt>
      <trkpt lat="52.168061" lon="4.929743">
        <ele>-1.413795</ele>
        <time>2026-02-17T17:50:52.180Z</time>
      </trkpt>
      <trkpt lat="52.168050" lon="4.929814">
        <ele>-1.435969</ele>
        <time>2026-02-17T17:50:53.030Z</time>
      </trkpt>
      <trkpt lat="52.168036" lon="4.929914">
        <ele>-1.467028</ele>
        <time>2026-02-17T17:50:54.218Z</time>
      </trkpt>
      <trkpt lat="52.168015" lon="4.930073">
        <ele>-1.516276</ele>
        <time>2026-02-17T17:50:56.096Z</time>
      </trkpt>
      <trkpt lat="52.168009" lon="4.930138">
        <ele>-1.536179</ele>
        <time>2026-02-17T17:50:56.843Z</time>
      </trkpt>
      <trkpt lat="52.167895" lon="4.931222">
        <ele>-1.869202</ele>
        <time>2026-02-17T17:51:08.943Z</time>
      </trkpt>
      <trkpt lat="52.167839" lon="4.931722">
        <ele>-2.023104</ele>
        <time>2026-02-17T17:51:14.370Z</time>
      </trkpt>
      <trkpt lat="52.167833" lon="4.932204">
        <ele>-2.131608</ele>
        <time>2026-02-17T17:51:19.599Z</time>
      </trkpt>
      <trkpt lat="52.167873" lon="4.932670">
        <ele>-2.209207</ele>
        <time>2026-02-17T17:51:24.768Z</time>
      </trkpt>
      <trkpt lat="52.167938" lon="4.933033">
        <ele>-2.271569</ele>
        <time>2026-02-17T17:51:29.013Z</time>
      </trkpt>
      <trkpt lat="52.168158" lon="4.933939">
        <ele>-2.432264</ele>
        <time>2026-02-17T17:51:40.759Z</time>
      </trkpt>
      <trkpt lat="52.168445" lon="4.935124">
        <ele>-2.545026</ele>
        <time>2026-02-17T17:51:57.411Z</time>
      </trkpt>
      <trkpt lat="52.170255" lon="4.942589">
        <ele>-2.007973</ele>
        <time>2026-02-17T17:53:38.703Z</time>
      </trkpt>
      <trkpt lat="52.170824" lon="4.944936">
        <ele>-1.739243</ele>
        <time>2026-02-17T17:54:12.270Z</time>
      </trkpt>
      <trkpt lat="52.171031" lon="4.945512">
        <ele>-1.665992</ele>
        <time>2026-02-17T17:54:20.465Z</time>
      </trkpt>
      <trkpt lat="52.171377" lon="4.946214">
        <ele>-1.909740</ele>
        <time>2026-02-17T17:54:30.632Z</time>
      </trkpt>
      <trkpt lat="52.171569" lon="4.946685">
        <ele>-2.082497</ele>
        <time>2026-02-17T17:54:35.111Z</time>
      </trkpt>
      <trkpt lat="52.171626" lon="4.946916">
        <ele>-2.158556</ele>
        <time>2026-02-17T17:54:37.058Z</time>
      </trkpt>
      <trkpt lat="52.171716" lon="4.947719">
        <ele>-2.407908</ele>
        <time>2026-02-17T17:54:43.401Z</time>
      </trkpt>
      <trkpt lat="52.171791" lon="4.948015">
        <ele>-2.505738</ele>
        <time>2026-02-17T17:54:45.899Z</time>
      </trkpt>
      <trkpt lat="52.173948" lon="4.953770">
        <ele>-2.906497</ele>
        <time>2026-02-17T17:55:46.524Z</time>
      </trkpt>
      <trkpt lat="52.174909" lon="4.956334">
        <ele>-2.974142</ele>
        <time>2026-02-17T17:56:13.110Z</time>
      </trkpt>
      <trkpt lat="52.174965" lon="4.956487">
        <ele>-2.970390</ele>
        <time>2026-02-17T17:56:14.636Z</time>
      </trkpt>
      <trkpt lat="52.175162" lon="4.957066">
        <ele>-2.956448</ele>
        <time>2026-02-17T17:56:20.507Z</time>
      </trkpt>
      <trkpt lat="52.175230" lon="4.957289">
        <ele>-2.951204</ele>
        <time>2026-02-17T17:56:22.790Z</time>
      </trkpt>
      <trkpt lat="52.175262" lon="4.957413">
        <ele>-2.948371</ele>
        <time>2026-02-17T17:56:24.012Z</time>
      </trkpt>
      <trkpt lat="52.175342" lon="4.957734">
        <ele>-2.941076</ele>
        <time>2026-02-17T17:56:27.356Z</time>
      </trkpt>
      <trkpt lat="52.176247" lon="4.957054">
        <ele>-2.829729</ele>
        <time>2026-02-17T17:56:48.785Z</time>
      </trkpt>
      <trkpt lat="52.176332" lon="4.956990">
        <ele>-2.815372</ele>
        <time>2026-02-17T17:56:50.869Z</time>
      </trkpt>
      <trkpt lat="52.176481" lon="4.956879">
        <ele>-2.790251</ele>
        <time>2026-02-17T17:56:54.461Z</time>
      </trkpt>
      <trkpt lat="52.178023" lon="4.955719">
        <ele>-2.747454</ele>
        <time>2026-02-17T17:57:28.418Z</time>
      </trkpt>
      <trkpt lat="52.178293" lon="4.955527">
        <ele>-2.781905</ele>
        <time>2026-02-17T17:57:34.227Z</time>
      </trkpt>
      <trkpt lat="52.178909" lon="4.955050">
        <ele>-2.861664</ele>
        <time>2026-02-17T17:57:47.730Z</time>
      </trkpt>
      <trkpt lat="52.179474" lon="4.954635">
        <ele>-2.899660</ele>
        <time>2026-02-17T17:57:59.685Z</time>
      </trkpt>
      <trkpt lat="52.179889" lon="4.954421">
        <ele>-2.925660</ele>
        <time>2026-02-17T17:58:08.424Z</time>
      </trkpt>
      <trkpt lat="52.179899" lon="4.954416">
        <ele>-2.926285</ele>
        <time>2026-02-17T17:58:08.635Z</time>
      </trkpt>
      <trkpt lat="52.180352" lon="4.954277">
        <ele>-2.953820</ele>
        <time>2026-02-17T17:58:17.972Z</time>
      </trkpt>
      <trkpt lat="52.180487" lon="4.954265">
        <ele>-2.961896</ele>
        <time>2026-02-17T17:58:20.675Z</time>
      </trkpt>
      <trkpt lat="52.180804" lon="4.954237">
        <ele>-2.946242</ele>
        <time>2026-02-17T17:58:27.089Z</time>
      </trkpt>
      <trkpt lat="52.182888" lon="4.954364">
        <ele>-2.672791</ele>
        <time>2026-02-17T17:59:11.057Z</time>
      </trkpt>
      <trkpt lat="52.184607" lon="4.954469">
        <ele>-2.603942</ele>
        <time>2026-02-17T17:59:45.599Z</time>
      </trkpt>
      <trkpt lat="52.184892" lon="4.954514">
        <ele>-2.606980</ele>
        <time>2026-02-17T17:59:51.592Z</time>
      </trkpt>
      <trkpt lat="52.185096" lon="4.954615">
        <ele>-2.609242</ele>
        <time>2026-02-17T17:59:55.966Z</time>
      </trkpt>
      <trkpt lat="52.185432" lon="4.954940">
        <ele>-2.613386</ele>
        <time>2026-02-17T18:00:03.857Z</time>
      </trkpt>
      <trkpt lat="52.185627" lon="4.955204">
        <ele>-2.616075</ele>
        <time>2026-02-17T18:00:08.911Z</time>
      </trkpt>
      <trkpt lat="52.185770" lon="4.955590">
        <ele>-2.619008</ele>
        <time>2026-02-17T18:00:14.378Z</time>
      </trkpt>
      <trkpt lat="52.185884" lon="4.956043">
        <ele>-2.653434</ele>
        <time>2026-02-17T18:00:20.360Z</time>
      </trkpt>
      <trkpt lat="52.186247" lon="4.957685">
        <ele>-2.778787</ele>
        <time>2026-02-17T18:00:41.221Z</time>
      </trkpt>
      <trkpt lat="52.186417" lon="4.958065">
        <ele>-2.812569</ele>
        <time>2026-02-17T18:00:46.946Z</time>
      </trkpt>
      <trkpt lat="52.186557" lon="4.958255">
        <ele>-2.825135</ele>
        <time>2026-02-17T18:00:50.619Z</time>
      </trkpt>
      <trkpt lat="52.186827" lon="4.958485">
        <ele>-2.785198</ele>
        <time>2026-02-17T18:00:56.815Z</time>
      </trkpt>
      <trkpt lat="52.187127" lon="4.958665">
        <ele>-2.743289</ele>
        <time>2026-02-17T18:01:03.445Z</time>
      </trkpt>
      <trkpt lat="52.187656" lon="4.958742">
        <ele>-2.673657</ele>
        <time>2026-02-17T18:01:14.698Z</time>
      </trkpt>
      <trkpt lat="52.187935" lon="4.958776">
        <ele>-2.636976</ele>
        <time>2026-02-17T18:01:20.632Z</time>
      </trkpt>
      <trkpt lat="52.188241" lon="4.958831">
        <ele>-2.596614</ele>
        <time>2026-02-17T18:01:27.103Z</time>
      </trkpt>
      <trkpt lat="52.188776" lon="4.958909">
        <ele>-2.582591</ele>
        <time>2026-02-17T18:01:38.215Z</time>
      </trkpt>
      <trkpt lat="52.191126" lon="4.959166">
        <ele>-2.623685</ele>
        <time>2026-02-17T18:02:25.295Z</time>
      </trkpt>
      <trkpt lat="52.191712" lon="4.959218">
        <ele>-2.661552</ele>
        <time>2026-02-17T18:02:33.926Z</time>
      </trkpt>
      <trkpt lat="52.192078" lon="4.959252">
        <ele>-2.720055</ele>
        <time>2026-02-17T18:02:39.092Z</time>
      </trkpt>
      <trkpt lat="52.192630" lon="4.959303">
        <ele>-2.840145</ele>
        <time>2026-02-17T18:02:46.907Z</time>
      </trkpt>
      <trkpt lat="52.192908" lon="4.959328">
        <ele>-2.900621</ele>
        <time>2026-02-17T18:02:50.724Z</time>
      </trkpt>
      <trkpt lat="52.194073" lon="4.959452">
        <ele>-3.014729</ele>
        <time>2026-02-17T18:03:07.070Z</time>
      </trkpt>
      <trkpt lat="52.194574" lon="4.959564">
        <ele>-2.959924</ele>
        <time>2026-02-17T18:03:14.949Z</time>
      </trkpt>
      <trkpt lat="52.195713" lon="4.959949">
        <ele>-2.811602</ele>
        <time>2026-02-17T18:03:33.535Z</time>
      </trkpt>
      <trkpt lat="52.196245" lon="4.960130">
        <ele>-2.712198</ele>
        <time>2026-02-17T18:03:42.055Z</time>
      </trkpt>
      <trkpt lat="52.197666" lon="4.960612">
        <ele>-2.533675</ele>
        <time>2026-02-17T18:04:04.054Z</time>
      </trkpt>
      <trkpt lat="52.197932" lon="4.960690">
        <ele>-2.531735</ele>
        <time>2026-02-17T18:04:08.170Z</time>
      </trkpt>
      <trkpt lat="52.199007" lon="4.961074">
        <ele>-2.532918</ele>
        <time>2026-02-17T18:04:24.607Z</time>
      </trkpt>
      <trkpt lat="52.199402" lon="4.961216">
        <ele>-2.584924</ele>
        <time>2026-02-17T18:04:30.313Z</time>
      </trkpt>
      <trkpt lat="52.199507" lon="4.961253">
        <ele>-2.598735</ele>
        <time>2026-02-17T18:04:31.854Z</time>
      </trkpt>
      <trkpt lat="52.200304" lon="4.961520">
        <ele>-2.703348</ele>
        <time>2026-02-17T18:04:43.392Z</time>
      </trkpt>
      <trkpt lat="52.200731" lon="4.961658">
        <ele>-2.758232</ele>
        <time>2026-02-17T18:04:49.639Z</time>
      </trkpt>
      <trkpt lat="52.201148" lon="4.961796">
        <ele>-2.797061</ele>
        <time>2026-02-17T18:04:55.785Z</time>
      </trkpt>
      <trkpt lat="52.201204" lon="4.961815">
        <ele>-2.802281</ele>
        <time>2026-02-17T18:04:56.611Z</time>
      </trkpt>
      <trkpt lat="52.202407" lon="4.962212">
        <ele>-2.914286</ele>
        <time>2026-02-17T18:05:14.344Z</time>
      </trkpt>
      <trkpt lat="52.202508" lon="4.962248">
        <ele>-2.920861</ele>
        <time>2026-02-17T18:05:15.810Z</time>
      </trkpt>
      <trkpt lat="52.202924" lon="4.962405">
        <ele>-2.931984</ele>
        <time>2026-02-17T18:05:21.928Z</time>
      </trkpt>
      <trkpt lat="52.203998" lon="4.962798">
        <ele>-2.960656</ele>
        <time>2026-02-17T18:05:38.245Z</time>
      </trkpt>
      <trkpt lat="52.204127" lon="4.962860">
        <ele>-2.964159</ele>
        <time>2026-02-17T18:05:40.297Z</time>
      </trkpt>
      <trkpt lat="52.204940" lon="4.963199">
        <ele>-2.887037</ele>
        <time>2026-02-17T18:05:53.184Z</time>
      </trkpt>
      <trkpt lat="52.205325" lon="4.963405">
        <ele>-2.843867</ele>
        <time>2026-02-17T18:05:59.533Z</time>
      </trkpt>
      <trkpt lat="52.205412" lon="4.963451">
        <ele>-2.834123</ele>
        <time>2026-02-17T18:06:01.408Z</time>
      </trkpt>
      <trkpt lat="52.205629" lon="4.963562">
        <ele>-2.809893</ele>
        <time>2026-02-17T18:06:04.791Z</time>
      </trkpt>
      <trkpt lat="52.206016" lon="4.963780">
        <ele>-2.771813</ele>
        <time>2026-02-17T18:06:10.921Z</time>
      </trkpt>
      <trkpt lat="52.206080" lon="4.963815">
        <ele>-2.769224</ele>
        <time>2026-02-17T18:06:11.950Z</time>
      </trkpt>
      <trkpt lat="52.206503" lon="4.964025">
        <ele>-2.752265</ele>
        <time>2026-02-17T18:06:18.661Z</time>
      </trkpt>
      <trkpt lat="52.206735" lon="4.964148">
        <ele>-2.742908</ele>
        <time>2026-02-17T18:06:22.321Z</time>
      </trkpt>
      <trkpt lat="52.207194" lon="4.964391">
        <ele>-2.724399</ele>
        <time>2026-02-17T18:06:29.385Z</time>
      </trkpt>
      <trkpt lat="52.207442" lon="4.964552">
        <ele>-2.714162</ele>
        <time>2026-02-17T18:06:33.247Z</time>
      </trkpt>
      <trkpt lat="52.207571" lon="4.964690">
        <ele>-2.708245</ele>
        <time>2026-02-17T18:06:35.558Z</time>
      </trkpt>
      <trkpt lat="52.207710" lon="4.964884">
        <ele>-2.678389</ele>
        <time>2026-02-17T18:06:38.366Z</time>
      </trkpt>
      <trkpt lat="52.207924" lon="4.965318">
        <ele>-2.601814</ele>
        <time>2026-02-17T18:06:43.721Z</time>
      </trkpt>
      <trkpt lat="52.208075" lon="4.965836">
        <ele>-2.522962</ele>
        <time>2026-02-17T18:06:49.242Z</time>
      </trkpt>
      <trkpt lat="52.208420" lon="4.967510">
        <ele>-2.317615</ele>
        <time>2026-02-17T18:07:06.648Z</time>
      </trkpt>
      <trkpt lat="52.208560" lon="4.967910">
        <ele>-2.360669</ele>
        <time>2026-02-17T18:07:11.087Z</time>
      </trkpt>
      <trkpt lat="52.208750" lon="4.968220">
        <ele>-2.401648</ele>
        <time>2026-02-17T18:07:15.136Z</time>
      </trkpt>
      <trkpt lat="52.208843" lon="4.968321">
        <ele>-2.418686</ele>
        <time>2026-02-17T18:07:16.752Z</time>
      </trkpt>
      <trkpt lat="52.208993" lon="4.968484">
        <ele>-2.446173</ele>
        <time>2026-02-17T18:07:19.309Z</time>
      </trkpt>
      <trkpt lat="52.209243" lon="4.968647">
        <ele>-2.487234</ele>
        <time>2026-02-17T18:07:23.001Z</time>
      </trkpt>
      <trkpt lat="52.209494" lon="4.968743">
        <ele>-2.526554</ele>
        <time>2026-02-17T18:07:26.421Z</time>
      </trkpt>
      <trkpt lat="52.209421" lon="4.969285">
        <ele>-2.577182</ele>
        <time>2026-02-17T18:07:30.910Z</time>
      </trkpt>
      <trkpt lat="52.209416" lon="4.969623">
        <ele>-2.584673</ele>
        <time>2026-02-17T18:07:33.658Z</time>
      </trkpt>
      <trkpt lat="52.209510" lon="4.970340">
        <ele>-2.600919</ele>
        <time>2026-02-17T18:07:39.778Z</time>
      </trkpt>
      <trkpt lat="52.210478" lon="4.977598">
        <ele>-2.590472</ele>
        <time>2026-02-17T18:08:48.185Z</time>
      </trkpt>
      <trkpt lat="52.210494" lon="4.977981">
        <ele>-2.575243</ele>
        <time>2026-02-17T18:08:51.852Z</time>
      </trkpt>
      <trkpt lat="52.210389" lon="4.978843">
        <ele>-2.551963</ele>
        <time>2026-02-17T18:09:00.143Z</time>
      </trkpt>
      <trkpt lat="52.211434" lon="4.979344">
        <ele>-2.504881</ele>
        <time>2026-02-17T18:09:16.372Z</time>
      </trkpt>
      <trkpt lat="52.211598" lon="4.979423">
        <ele>-2.497474</ele>
        <time>2026-02-17T18:09:18.877Z</time>
      </trkpt>
      <trkpt lat="52.212139" lon="4.979654">
        <ele>-2.473154</ele>
        <time>2026-02-17T18:09:27.162Z</time>
      </trkpt>
      <trkpt lat="52.212557" lon="4.979858">
        <ele>-2.454180</ele>
        <time>2026-02-17T18:09:33.771Z</time>
      </trkpt>
      <trkpt lat="52.213023" lon="4.980007">
        <ele>-2.433528</ele>
        <time>2026-02-17T18:09:41.137Z</time>
      </trkpt>
      <trkpt lat="52.213575" lon="4.980184">
        <ele>-2.415107</ele>
        <time>2026-02-17T18:09:49.494Z</time>
      </trkpt>
      <trkpt lat="52.213721" lon="4.980230">
        <ele>-2.411714</ele>
        <time>2026-02-17T18:09:51.686Z</time>
      </trkpt>
      <trkpt lat="52.213828" lon="4.980268">
        <ele>-2.409216</ele>
        <time>2026-02-17T18:09:53.306Z</time>
      </trkpt>
      <trkpt lat="52.214452" lon="4.980512">
        <ele>-2.394577</ele>
        <time>2026-02-17T18:10:02.865Z</time>
      </trkpt>
      <trkpt lat="52.214579" lon="4.980570">
        <ele>-2.391568</ele>
        <time>2026-02-17T18:10:04.797Z</time>
      </trkpt>
      <trkpt lat="52.214916" lon="4.980725">
        <ele>-2.383580</ele>
        <time>2026-02-17T18:10:09.845Z</time>
      </trkpt>
      <trkpt lat="52.215059" lon="4.980772">
        <ele>-2.379141</ele>
        <time>2026-02-17T18:10:11.967Z</time>
      </trkpt>
      <trkpt lat="52.215249" lon="4.980868">
        <ele>-2.364289</ele>
        <time>2026-02-17T18:10:14.964Z</time>
      </trkpt>
      <trkpt lat="52.215499" lon="4.980995">
        <ele>-2.344738</ele>
        <time>2026-02-17T18:10:19.010Z</time>
      </trkpt>
      <trkpt lat="52.215979" lon="4.981237">
        <ele>-2.307225</ele>
        <time>2026-02-17T18:10:26.916Z</time>
      </trkpt>
      <trkpt lat="52.216253" lon="4.981353">
        <ele>-2.286089</ele>
        <time>2026-02-17T18:10:31.290Z</time>
      </trkpt>
      <trkpt lat="52.216265" lon="4.981357">
        <ele>-2.285174</ele>
        <time>2026-02-17T18:10:31.462Z</time>
      </trkpt>
      <trkpt lat="52.216661" lon="4.981511">
        <ele>-2.254777</ele>
        <time>2026-02-17T18:10:37.507Z</time>
      </trkpt>
      <trkpt lat="52.217092" lon="4.981692">
        <ele>-2.274492</ele>
        <time>2026-02-17T18:10:43.916Z</time>
      </trkpt>
      <trkpt lat="52.217318" lon="4.981788">
        <ele>-2.294147</ele>
        <time>2026-02-17T18:10:47.273Z</time>
      </trkpt>
      <trkpt lat="52.217478" lon="4.981855">
        <ele>-2.308050</ele>
        <time>2026-02-17T18:10:49.632Z</time>
      </trkpt>
      <trkpt lat="52.217898" lon="4.982032">
        <ele>-2.344560</ele>
        <time>2026-02-17T18:10:55.787Z</time>
      </trkpt>
      <trkpt lat="52.219158" lon="4.982536">
        <ele>-2.512534</ele>
        <time>2026-02-17T18:11:14.873Z</time>
      </trkpt>
      <trkpt lat="52.219786" lon="4.982780">
        <ele>-2.623978</ele>
        <time>2026-02-17T18:11:24.207Z</time>
      </trkpt>
      <trkpt lat="52.220167" lon="4.982928">
        <ele>-2.691590</ele>
        <time>2026-02-17T18:11:29.336Z</time>
      </trkpt>
      <trkpt lat="52.220642" lon="4.983178">
        <ele>-2.687947</ele>
        <time>2026-02-17T18:11:36.168Z</time>
      </trkpt>
      <trkpt lat="52.220986" lon="4.983324">
        <ele>-2.669924</ele>
        <time>2026-02-17T18:11:41.158Z</time>
      </trkpt>
      <trkpt lat="52.220986" lon="4.983463">
        <ele>-2.665606</ele>
        <time>2026-02-17T18:11:42.449Z</time>
      </trkpt>
      <trkpt lat="52.221221" lon="4.984600">
        <ele>-2.628330</ele>
        <time>2026-02-17T18:11:53.586Z</time>
      </trkpt>
      <trkpt lat="52.219990" lon="4.985530">
        <ele>-1.809499</ele>
        <time>2026-02-17T18:12:25.328Z</time>
      </trkpt>
      <trkpt lat="52.219950" lon="4.985577">
        <ele>-1.774447</ele>
        <time>2026-02-17T18:12:26.492Z</time>
      </trkpt>
      <trkpt lat="52.219915" lon="4.985733">
        <ele>-1.702063</ele>
        <time>2026-02-17T18:12:28.882Z</time>
      </trkpt>
      <trkpt lat="52.219935" lon="4.985824">
        <ele>-1.659940</ele>
        <time>2026-02-17T18:12:30.284Z</time>
      </trkpt>
      <trkpt lat="52.220025" lon="4.985867">
        <ele>-1.593247</ele>
        <time>2026-02-17T18:12:32.507Z</time>
      </trkpt>
      <trkpt lat="52.221272" lon="4.985694">
        <ele>-0.936012</ele>
        <time>2026-02-17T18:13:01.299Z</time>
      </trkpt>
      <trkpt lat="52.221363" lon="4.985671">
        <ele>-0.894543</ele>
        <time>2026-02-17T18:13:03.308Z</time>
      </trkpt>
      <trkpt lat="52.222107" lon="4.985452">
        <ele>-0.554090</ele>
        <time>2026-02-17T18:13:19.251Z</time>
      </trkpt>
      <trkpt lat="52.222831" lon="4.985180">
        <ele>-0.557073</ele>
        <time>2026-02-17T18:13:34.096Z</time>
      </trkpt>
      <trkpt lat="52.223582" lon="4.984840">
        <ele>-0.590210</ele>
        <time>2026-02-17T18:13:49.984Z</time>
      </trkpt>
      <trkpt lat="52.223676" lon="4.984787">
        <ele>-0.594439</ele>
        <time>2026-02-17T18:13:51.959Z</time>
      </trkpt>
      <trkpt lat="52.223835" lon="4.984606">
        <ele>-0.602681</ele>
        <time>2026-02-17T18:13:55.815Z</time>
      </trkpt>
      <trkpt lat="52.224313" lon="4.984329">
        <ele>-0.821151</ele>
        <time>2026-02-17T18:14:05.537Z</time>
      </trkpt>
      <trkpt lat="52.224981" lon="4.983795">
        <ele>-1.166987</ele>
        <time>2026-02-17T18:14:19.264Z</time>
      </trkpt>
      <trkpt lat="52.225189" lon="4.983598">
        <ele>-1.278797</ele>
        <time>2026-02-17T18:14:23.612Z</time>
      </trkpt>
      <trkpt lat="52.225210" lon="4.983394">
        <ele>-1.337715</ele>
        <time>2026-02-17T18:14:25.885Z</time>
      </trkpt>
      <trkpt lat="52.225155" lon="4.983291">
        <ele>-1.376632</ele>
        <time>2026-02-17T18:14:27.389Z</time>
      </trkpt>
      <trkpt lat="52.225081" lon="4.983272">
        <ele>-1.411463</ele>
        <time>2026-02-17T18:14:28.720Z</time>
      </trkpt>
      <trkpt lat="52.224342" lon="4.983876">
        <ele>-1.671663</ele>
        <time>2026-02-17T18:14:43.925Z</time>
      </trkpt>
      <trkpt lat="52.223596" lon="4.984333">
        <ele>-1.912666</ele>
        <time>2026-02-17T18:14:59.641Z</time>
      </trkpt>
      <trkpt lat="52.223408" lon="4.984423">
        <ele>-1.971924</ele>
        <time>2026-02-17T18:15:03.570Z</time>
      </trkpt>
      <trkpt lat="52.224021" lon="4.987527">
        <ele>-2.022099</ele>
        <time>2026-02-17T18:15:33.152Z</time>
      </trkpt>
      <trkpt lat="52.224040" lon="4.987587">
        <ele>-2.024756</ele>
        <time>2026-02-17T18:15:33.744Z</time>
      </trkpt>
      <trkpt lat="52.224190" lon="4.987789">
        <ele>-2.037244</ele>
        <time>2026-02-17T18:15:36.573Z</time>
      </trkpt>
      <trkpt lat="52.224224" lon="4.987971">
        <ele>-2.044730</ele>
        <time>2026-02-17T18:15:38.279Z</time>
      </trkpt>
      <trkpt lat="52.224263" lon="4.988142">
        <ele>-2.051908</ele>
        <time>2026-02-17T18:15:39.909Z</time>
      </trkpt>
      <trkpt lat="52.224294" lon="4.988338">
        <ele>-2.059872</ele>
        <time>2026-02-17T18:15:41.723Z</time>
      </trkpt>
      <trkpt lat="52.224273" lon="4.988647">
        <ele>-2.072103</ele>
        <time>2026-02-17T18:15:44.495Z</time>
      </trkpt>
      <trkpt lat="52.224345" lon="4.989081">
        <ele>-2.089792</ele>
        <time>2026-02-17T18:15:48.460Z</time>
      </trkpt>
      <trkpt lat="52.224566" lon="4.990203">
        <ele>-2.115550</ele>
        <time>2026-02-17T18:15:58.999Z</time>
      </trkpt>
      <trkpt lat="52.224673" lon="4.990884">
        <ele>-2.077025</ele>
        <time>2026-02-17T18:16:05.287Z</time>
      </trkpt>
      <trkpt lat="52.225031" lon="4.992457">
        <ele>-1.985074</ele>
        <time>2026-02-17T18:16:20.610Z</time>
      </trkpt>
      <trkpt lat="52.225815" lon="4.995204">
        <ele>-1.266432</ele>
        <time>2026-02-17T18:16:51.410Z</time>
      </trkpt>
      <trkpt lat="52.226551" lon="4.997992">
        <ele>-0.455935</ele>
        <time>2026-02-17T18:17:23.044Z</time>
      </trkpt>
      <trkpt lat="52.226670" lon="4.998504">
        <ele>-0.402742</ele>
        <time>2026-02-17T18:17:29.841Z</time>
      </trkpt>
      <trkpt lat="52.226706" lon="4.998537">
        <ele>-0.400234</ele>
        <time>2026-02-17T18:17:30.443Z</time>
      </trkpt>
      <trkpt lat="52.226772" lon="4.998525">
        <ele>-0.396199</ele>
        <time>2026-02-17T18:17:31.391Z</time>
      </trkpt>
      <trkpt lat="52.227131" lon="4.998257">
        <ele>-0.372218</ele>
        <time>2026-02-17T18:17:36.998Z</time>
      </trkpt>
      <trkpt lat="52.227394" lon="4.998145">
        <ele>-0.355706</ele>
        <time>2026-02-17T18:17:40.843Z</time>
      </trkpt>
      <trkpt lat="52.227702" lon="4.998024">
        <ele>-0.336460</ele>
        <time>2026-02-17T18:17:45.468Z</time>
      </trkpt>
      <trkpt lat="52.227933" lon="4.997984">
        <ele>-0.322348</ele>
        <time>2026-02-17T18:17:48.948Z</time>
      </trkpt>
      <trkpt lat="52.227949" lon="4.998029">
        <ele>-0.320412</ele>
        <time>2026-02-17T18:17:49.647Z</time>
      </trkpt>
      <trkpt lat="52.227977" lon="4.998105">
        <ele>-0.317112</ele>
        <time>2026-02-17T18:17:50.797Z</time>
      </trkpt>
      <trkpt lat="52.228110" lon="4.998100">
        <ele>-0.309030</ele>
        <time>2026-02-17T18:17:53.635Z</time>
      </trkpt>
      <trkpt lat="52.228213" lon="4.998051">
        <ele>-0.265070</ele>
        <time>2026-02-17T18:17:55.918Z</time>
      </trkpt>
      <trkpt lat="52.228722" lon="4.998229">
        <ele>-0.037344</ele>
        <time>2026-02-17T18:18:04.708Z</time>
      </trkpt>
      <trkpt lat="52.229110" lon="4.998289">
        <ele>0.133156</ele>
        <time>2026-02-17T18:18:11.490Z</time>
      </trkpt>
      <trkpt lat="52.229142" lon="4.998291">
        <ele>0.147165</ele>
        <time>2026-02-17T18:18:12.044Z</time>
      </trkpt>
      <trkpt lat="52.229742" lon="4.998271">
        <ele>0.409705</ele>
        <time>2026-02-17T18:18:22.364Z</time>
      </trkpt>
      <trkpt lat="52.230150" lon="4.998138">
        <ele>0.415542</ele>
        <time>2026-02-17T18:18:28.985Z</time>
      </trkpt>
      <trkpt lat="52.230506" lon="4.997940">
        <ele>0.324477</ele>
        <time>2026-02-17T18:18:34.315Z</time>
      </trkpt>
      <trkpt lat="52.230602" lon="4.997868">
        <ele>0.298896</ele>
        <time>2026-02-17T18:18:35.759Z</time>
      </trkpt>
      <trkpt lat="52.230825" lon="4.997662">
        <ele>0.236856</ele>
        <time>2026-02-17T18:18:39.172Z</time>
      </trkpt>
      <trkpt lat="52.230927" lon="4.997555">
        <ele>0.207499</ele>
        <time>2026-02-17T18:18:40.778Z</time>
      </trkpt>
      <trkpt lat="52.231101" lon="4.997363">
        <ele>0.156648</ele>
        <time>2026-02-17T18:18:44.679Z</time>
      </trkpt>
      <trkpt lat="52.231414" lon="4.996989">
        <ele>0.062731</ele>
        <time>2026-02-17T18:18:49.784Z</time>
      </trkpt>
      <trkpt lat="52.231585" lon="4.996713">
        <ele>0.016744</ele>
        <time>2026-02-17T18:18:52.962Z</time>
      </trkpt>
      <trkpt lat="52.232173" lon="4.995556">
        <ele>-0.134962</ele>
        <time>2026-02-17T18:19:05.637Z</time>
      </trkpt>
      <trkpt lat="52.232882" lon="4.994254">
        <ele>-0.258883</ele>
        <time>2026-02-17T18:19:22.239Z</time>
      </trkpt>
      <trkpt lat="52.233073" lon="4.993914">
        <ele>-0.263232</ele>
        <time>2026-02-17T18:19:28.050Z</time>
      </trkpt>
      <trkpt lat="52.233374" lon="4.993383">
        <ele>-0.270051</ele>
        <time>2026-02-17T18:19:34.565Z</time>
      </trkpt>
      <trkpt lat="52.233666" lon="4.992906">
        <ele>-0.276408</ele>
        <time>2026-02-17T18:19:40.393Z</time>
      </trkpt>
      <trkpt lat="52.233956" lon="4.992547">
        <ele>-0.288956</ele>
        <time>2026-02-17T18:19:45.466Z</time>
      </trkpt>
      <trkpt lat="52.234271" lon="4.992230">
        <ele>-0.344727</ele>
        <time>2026-02-17T18:19:50.648Z</time>
      </trkpt>
      <trkpt lat="52.234368" lon="4.992183">
        <ele>-0.359977</ele>
        <time>2026-02-17T18:19:52.068Z</time>
      </trkpt>
      <trkpt lat="52.234495" lon="4.992121">
        <ele>-0.379956</ele>
        <time>2026-02-17T18:19:53.953Z</time>
      </trkpt>
      <trkpt lat="52.234687" lon="4.992105">
        <ele>-0.408933</ele>
        <time>2026-02-17T18:19:56.712Z</time>
      </trkpt>
      <trkpt lat="52.234868" lon="4.992155">
        <ele>-0.436601</ele>
        <time>2026-02-17T18:19:59.373Z</time>
      </trkpt>
      <trkpt lat="52.235012" lon="4.992271">
        <ele>-0.460803</ele>
        <time>2026-02-17T18:20:01.719Z</time>
      </trkpt>
      <trkpt lat="52.235257" lon="4.992659">
        <ele>-0.512246</ele>
        <time>2026-02-17T18:20:06.688Z</time>
      </trkpt>
      <trkpt lat="52.235570" lon="4.993480">
        <ele>-0.613847</ele>
        <time>2026-02-17T18:20:15.358Z</time>
      </trkpt>
      <trkpt lat="52.235707" lon="4.994005">
        <ele>-0.679729</ele>
        <time>2026-02-17T18:20:20.406Z</time>
      </trkpt>
      <trkpt lat="52.236019" lon="4.996213">
        <ele>-0.905254</ele>
        <time>2026-02-17T18:20:39.659Z</time>
      </trkpt>
      <trkpt lat="52.236040" lon="4.996357">
        <ele>-0.910001</ele>
        <time>2026-02-17T18:20:40.914Z</time>
      </trkpt>
      <trkpt lat="52.236095" lon="4.996771">
        <ele>-0.923584</ele>
        <time>2026-02-17T18:20:45.948Z</time>
      </trkpt>
      <trkpt lat="52.236522" lon="4.999220">
        <ele>-0.983573</ele>
        <time>2026-02-17T18:21:09.236Z</time>
      </trkpt>
      <trkpt lat="52.236696" lon="5.000033">
        <ele>-0.980793</ele>
        <time>2026-02-17T18:21:17.384Z</time>
      </trkpt>
      <trkpt lat="52.236817" lon="5.000472">
        <ele>-0.979238</ele>
        <time>2026-02-17T18:21:21.832Z</time>
      </trkpt>
      <trkpt lat="52.236947" lon="5.000833">
        <ele>-0.977886</ele>
        <time>2026-02-17T18:21:25.706Z</time>
      </trkpt>
      <trkpt lat="52.237144" lon="5.001258">
        <ele>-0.976165</ele>
        <time>2026-02-17T18:21:30.503Z</time>
      </trkpt>
      <trkpt lat="52.237384" lon="5.001676">
        <ele>-1.023381</ele>
        <time>2026-02-17T18:21:35.342Z</time>
      </trkpt>
      <trkpt lat="52.237569" lon="5.001985">
        <ele>-1.060959</ele>
        <time>2026-02-17T18:21:40.270Z</time>
      </trkpt>
      <trkpt lat="52.237751" lon="5.002234">
        <ele>-1.094675</ele>
        <time>2026-02-17T18:21:43.463Z</time>
      </trkpt>
      <trkpt lat="52.237913" lon="5.002439">
        <ele>-1.123777</ele>
        <time>2026-02-17T18:21:46.288Z</time>
      </trkpt>
      <trkpt lat="52.238234" lon="5.002729">
        <ele>-1.175870</ele>
        <time>2026-02-17T18:21:51.619Z</time>
      </trkpt>
      <trkpt lat="52.238481" lon="5.002896">
        <ele>-1.213831</ele>
        <time>2026-02-17T18:21:55.696Z</time>
      </trkpt>
      <trkpt lat="52.238904" lon="5.003089">
        <ele>-1.158330</ele>
        <time>2026-02-17T18:22:02.389Z</time>
      </trkpt>
      <trkpt lat="52.239194" lon="5.003090">
        <ele>-1.090975</ele>
        <time>2026-02-17T18:22:07.020Z</time>
      </trkpt>
      <trkpt lat="52.239409" lon="5.002997">
        <ele>-1.039317</ele>
        <time>2026-02-17T18:22:10.778Z</time>
      </trkpt>
      <trkpt lat="52.239747" lon="5.002724">
        <ele>-0.951736</ele>
        <time>2026-02-17T18:22:17.199Z</time>
      </trkpt>
      <trkpt lat="52.240004" lon="5.002372">
        <ele>-0.873831</ele>
        <time>2026-02-17T18:22:22.411Z</time>
      </trkpt>
      <trkpt lat="52.240282" lon="5.001839">
        <ele>-0.796062</ele>
        <time>2026-02-17T18:22:28.851Z</time>
      </trkpt>
      <trkpt lat="52.240545" lon="5.001190">
        <ele>-0.746532</ele>
        <time>2026-02-17T18:22:35.846Z</time>
      </trkpt>
      <trkpt lat="52.240639" lon="5.000928">
        <ele>-0.727206</ele>
        <time>2026-02-17T18:22:39.586Z</time>
      </trkpt>
      <trkpt lat="52.240677" lon="5.000831">
        <ele>-0.719877</ele>
        <time>2026-02-17T18:22:40.661Z</time>
      </trkpt>
      <trkpt lat="52.240764" lon="5.000561">
        <ele>-0.700460</ele>
        <time>2026-02-17T18:22:43.470Z</time>
      </trkpt>
      <trkpt lat="52.240908" lon="4.999853">
        <ele>-0.652980</ele>
        <time>2026-02-17T18:22:50.393Z</time>
      </trkpt>
      <trkpt lat="52.241143" lon="4.998022">
        <ele>-0.478375</ele>
        <time>2026-02-17T18:23:08.650Z</time>
      </trkpt>
      <trkpt lat="52.241267" lon="4.997397">
        <ele>-0.411555</ele>
        <time>2026-02-17T18:23:14.871Z</time>
      </trkpt>
      <trkpt lat="52.241403" lon="4.996862">
        <ele>-0.352640</ele>
        <time>2026-02-17T18:23:20.246Z</time>
      </trkpt>
      <trkpt lat="52.241648" lon="4.996091">
        <ele>-0.295484</ele>
        <time>2026-02-17T18:23:28.001Z</time>
      </trkpt>
      <trkpt lat="52.241834" lon="4.995680">
        <ele>-0.268937</ele>
        <time>2026-02-17T18:23:32.483Z</time>
      </trkpt>
      <trkpt lat="52.242104" lon="4.995177">
        <ele>-0.234192</ele>
        <time>2026-02-17T18:23:38.763Z</time>
      </trkpt>
      <trkpt lat="52.242227" lon="4.994964">
        <ele>-0.218984</ele>
        <time>2026-02-17T18:23:41.670Z</time>
      </trkpt>
      <trkpt lat="52.242401" lon="4.994681">
        <ele>-0.198152</ele>
        <time>2026-02-17T18:23:46.916Z</time>
      </trkpt>
      <trkpt lat="52.242649" lon="4.994330">
        <ele>-0.173881</ele>
        <time>2026-02-17T18:23:52.058Z</time>
      </trkpt>
      <trkpt lat="52.242723" lon="4.994244">
        <ele>-0.171513</ele>
        <time>2026-02-17T18:23:53.452Z</time>
      </trkpt>
      <trkpt lat="52.243083" lon="4.993828">
        <ele>-0.160018</ele>
        <time>2026-02-17T18:23:59.906Z</time>
      </trkpt>
      <trkpt lat="52.243534" lon="4.993333">
        <ele>-0.145855</ele>
        <time>2026-02-17T18:24:08.115Z</time>
      </trkpt>
      <trkpt lat="52.243988" lon="4.992834">
        <ele>-0.131591</ele>
        <time>2026-02-17T18:24:16.140Z</time>
      </trkpt>
      <trkpt lat="52.244649" lon="4.992121">
        <ele>-0.012102</ele>
        <time>2026-02-17T18:24:27.748Z</time>
      </trkpt>
      <trkpt lat="52.244862" lon="4.991952">
        <ele>0.028660</ele>
        <time>2026-02-17T18:24:31.511Z</time>
      </trkpt>
      <trkpt lat="52.244969" lon="4.991886">
        <ele>0.048349</ele>
        <time>2026-02-17T18:24:33.410Z</time>
      </trkpt>
      <trkpt lat="52.245202" lon="4.991773">
        <ele>0.090187</ele>
        <time>2026-02-17T18:24:38.746Z</time>
      </trkpt>
      <trkpt lat="52.245565" lon="4.991582">
        <ele>0.155835</ele>
        <time>2026-02-17T18:24:44.857Z</time>
      </trkpt>
      <trkpt lat="52.246152" lon="4.991133">
        <ele>0.119462</ele>
        <time>2026-02-17T18:24:55.040Z</time>
      </trkpt>
      <trkpt lat="52.246337" lon="4.990933">
        <ele>0.092242</ele>
        <time>2026-02-17T18:24:58.345Z</time>
      </trkpt>
      <trkpt lat="52.246422" lon="4.990815">
        <ele>0.078555</ele>
        <time>2026-02-17T18:24:59.981Z</time>
      </trkpt>
      <trkpt lat="52.246696" lon="4.990363">
        <ele>0.030774</ele>
        <time>2026-02-17T18:25:05.558Z</time>
      </trkpt>
      <trkpt lat="52.246788" lon="4.990283">
        <ele>0.017986</ele>
        <time>2026-02-17T18:25:07.003Z</time>
      </trkpt>
      <trkpt lat="52.246990" lon="4.990242">
        <ele>-0.006989</ele>
        <time>2026-02-17T18:25:09.787Z</time>
      </trkpt>
      <trkpt lat="52.247138" lon="4.990321">
        <ele>-0.026092</ele>
        <time>2026-02-17T18:25:11.878Z</time>
      </trkpt>
      <trkpt lat="52.248078" lon="4.991354">
        <ele>-0.698256</ele>
        <time>2026-02-17T18:25:26.434Z</time>
      </trkpt>
      <trkpt lat="52.248297" lon="4.991596">
        <ele>-0.868572</ele>
        <time>2026-02-17T18:25:29.679Z</time>
      </trkpt>
      <trkpt lat="52.248602" lon="4.991934">
        <ele>-1.105984</ele>
        <time>2026-02-17T18:25:34.351Z</time>
      </trkpt>
      <trkpt lat="52.249066" lon="4.992449">
        <ele>-1.211358</ele>
        <time>2026-02-17T18:25:41.708Z</time>
      </trkpt>
      <trkpt lat="52.249271" lon="4.992676">
        <ele>-1.219148</ele>
        <time>2026-02-17T18:25:45.339Z</time>
      </trkpt>
      <trkpt lat="52.249862" lon="4.993329">
        <ele>-1.241588</ele>
        <time>2026-02-17T18:25:56.324Z</time>
      </trkpt>
      <trkpt lat="52.250080" lon="4.993534">
        <ele>-1.249500</ele>
        <time>2026-02-17T18:26:00.553Z</time>
      </trkpt>
      <trkpt lat="52.250344" lon="4.993742">
        <ele>-1.258155</ele>
        <time>2026-02-17T18:26:05.338Z</time>
      </trkpt>
      <trkpt lat="52.250562" lon="4.993865">
        <ele>-1.264371</ele>
        <time>2026-02-17T18:26:09.075Z</time>
      </trkpt>
      <trkpt lat="52.250744" lon="4.993873">
        <ele>-1.269278</ele>
        <time>2026-02-17T18:26:11.971Z</time>
      </trkpt>
      <trkpt lat="52.251264" lon="4.993787">
        <ele>-1.283363</ele>
        <time>2026-02-17T18:26:19.613Z</time>
      </trkpt>
      <trkpt lat="52.251560" lon="4.993769">
        <ele>-1.291346</ele>
        <time>2026-02-17T18:26:25.141Z</time>
      </trkpt>
      <trkpt lat="52.251615" lon="4.993767">
        <ele>-1.292828</ele>
        <time>2026-02-17T18:26:25.875Z</time>
      </trkpt>
      <trkpt lat="52.252469" lon="4.993638">
        <ele>-1.226060</ele>
        <time>2026-02-17T18:26:38.098Z</time>
      </trkpt>
      <trkpt lat="52.252829" lon="4.993525">
        <ele>-1.165921</ele>
        <time>2026-02-17T18:26:43.593Z</time>
      </trkpt>
      <trkpt lat="52.253197" lon="4.993354">
        <ele>-1.103155</ele>
        <time>2026-02-17T18:26:49.587Z</time>
      </trkpt>
      <trkpt lat="52.254107" lon="4.992887">
        <ele>-0.931088</ele>
        <time>2026-02-17T18:27:05.567Z</time>
      </trkpt>
      <trkpt lat="52.254391" lon="4.992752">
        <ele>-0.870271</ele>
        <time>2026-02-17T18:27:11.867Z</time>
      </trkpt>
      <trkpt lat="52.254915" lon="4.992498">
        <ele>-0.757884</ele>
        <time>2026-02-17T18:27:20.234Z</time>
      </trkpt>
      <trkpt lat="52.255628" lon="4.992152">
        <ele>-0.638540</ele>
        <time>2026-02-17T18:27:31.525Z</time>
      </trkpt>
      <trkpt lat="52.256039" lon="4.991992">
        <ele>-0.639017</ele>
        <time>2026-02-17T18:27:37.750Z</time>
      </trkpt>
      <trkpt lat="52.256340" lon="4.991871">
        <ele>-0.639367</ele>
        <time>2026-02-17T18:27:44.016Z</time>
      </trkpt>
      <trkpt lat="52.256489" lon="4.991808">
        <ele>-0.639540</ele>
        <time>2026-02-17T18:27:46.318Z</time>
      </trkpt>
      <trkpt lat="52.256824" lon="4.991605">
        <ele>-0.639944</ele>
        <time>2026-02-17T18:27:51.716Z</time>
      </trkpt>
      <trkpt lat="52.256955" lon="4.991462">
        <ele>-0.640121</ele>
        <time>2026-02-17T18:27:54.096Z</time>
      </trkpt>
      <trkpt lat="52.257014" lon="4.991371">
        <ele>-0.640213</ele>
        <time>2026-02-17T18:27:55.315Z</time>
      </trkpt>
      <trkpt lat="52.257104" lon="4.991138">
        <ele>-0.646557</ele>
        <time>2026-02-17T18:27:57.837Z</time>
      </trkpt>
      <trkpt lat="52.257208" lon="4.990550">
        <ele>-0.801931</ele>
        <time>2026-02-17T18:28:03.159Z</time>
      </trkpt>
      <trkpt lat="52.257318" lon="4.990236">
        <ele>-0.893772</ele>
        <time>2026-02-17T18:28:06.128Z</time>
      </trkpt>
      <trkpt lat="52.257603" lon="4.989823">
        <ele>-1.051765</ele>
        <time>2026-02-17T18:28:11.115Z</time>
      </trkpt>
      <trkpt lat="52.257838" lon="4.989598">
        <ele>-1.164727</ele>
        <time>2026-02-17T18:28:14.676Z</time>
      </trkpt>
      <trkpt lat="52.258034" lon="4.989456">
        <ele>-1.253645</ele>
        <time>2026-02-17T18:28:17.472Z</time>
      </trkpt>
      <trkpt lat="52.258274" lon="4.989220">
        <ele>-1.369816</ele>
        <time>2026-02-17T18:28:22.580Z</time>
      </trkpt>
      <trkpt lat="52.259011" lon="4.987791">
        <ele>-1.766664</ele>
        <time>2026-02-17T18:28:37.953Z</time>
      </trkpt>
      <trkpt lat="52.259278" lon="4.987565">
        <ele>-1.870263</ele>
        <time>2026-02-17T18:28:43.862Z</time>
      </trkpt>
      <trkpt lat="52.261202" lon="4.986219">
        <ele>-2.336788</ele>
        <time>2026-02-17T18:29:13.340Z</time>
      </trkpt>
      <trkpt lat="52.261558" lon="4.985969">
        <ele>-2.353529</ele>
        <time>2026-02-17T18:29:19.037Z</time>
      </trkpt>
      <trkpt lat="52.261711" lon="4.985861">
        <ele>-2.351994</ele>
        <time>2026-02-17T18:29:21.506Z</time>
      </trkpt>
      <trkpt lat="52.265459" lon="4.983211">
        <ele>-2.146287</ele>
        <time>2026-02-17T18:30:22.218Z</time>
      </trkpt>
      <trkpt lat="52.266968" lon="4.982154">
        <ele>-1.565386</ele>
        <time>2026-02-17T18:30:49.191Z</time>
      </trkpt>
      <trkpt lat="52.267200" lon="4.981879">
        <ele>-1.411957</ele>
        <time>2026-02-17T18:30:54.066Z</time>
      </trkpt>
      <trkpt lat="52.267550" lon="4.981618">
        <ele>-1.206008</ele>
        <time>2026-02-17T18:31:00.788Z</time>
      </trkpt>
      <trkpt lat="52.267839" lon="4.981332">
        <ele>-1.025142</ele>
        <time>2026-02-17T18:31:06.930Z</time>
      </trkpt>
      <trkpt lat="52.268060" lon="4.980998">
        <ele>-0.875605</ele>
        <time>2026-02-17T18:31:12.306Z</time>
      </trkpt>
      <trkpt lat="52.268352" lon="4.980383">
        <ele>-0.639295</ele>
        <time>2026-02-17T18:31:20.272Z</time>
      </trkpt>
      <trkpt lat="52.268394" lon="4.980286">
        <ele>-0.603222</ele>
        <time>2026-02-17T18:31:21.499Z</time>
      </trkpt>
      <trkpt lat="52.268432" lon="4.980197">
        <ele>-0.570277</ele>
        <time>2026-02-17T18:31:22.962Z</time>
      </trkpt>
      <trkpt lat="52.268546" lon="4.979930">
        <ele>-0.471441</ele>
        <time>2026-02-17T18:31:27.357Z</time>
      </trkpt>
      <trkpt lat="52.268608" lon="4.979781">
        <ele>-0.416741</ele>
        <time>2026-02-17T18:31:29.179Z</time>
      </trkpt>
      <trkpt lat="52.268851" lon="4.979147">
        <ele>-0.189635</ele>
        <time>2026-02-17T18:31:36.746Z</time>
      </trkpt>
      <trkpt lat="52.268989" lon="4.978707">
        <ele>-0.093536</ele>
        <time>2026-02-17T18:31:41.580Z</time>
      </trkpt>
      <trkpt lat="52.269046" lon="4.978497">
        <ele>-0.065369</ele>
        <time>2026-02-17T18:31:43.751Z</time>
      </trkpt>
      <trkpt lat="52.269099" lon="4.978294">
        <ele>-0.038309</ele>
        <time>2026-02-17T18:31:45.828Z</time>
      </trkpt>
      <trkpt lat="52.269180" lon="4.977978">
        <ele>0.003696</ele>
        <time>2026-02-17T18:31:49.033Z</time>
      </trkpt>
      <trkpt lat="52.269205" lon="4.977894">
        <ele>0.015148</ele>
        <time>2026-02-17T18:31:49.926Z</time>
      </trkpt>
      <trkpt lat="52.269296" lon="4.977568">
        <ele>0.059080</ele>
        <time>2026-02-17T18:31:53.363Z</time>
      </trkpt>
      <trkpt lat="52.269529" lon="4.976511">
        <ele>0.196826</ele>
        <time>2026-02-17T18:32:04.206Z</time>
      </trkpt>
      <trkpt lat="52.269591" lon="4.976270">
        <ele>0.228878</ele>
        <time>2026-02-17T18:32:06.653Z</time>
      </trkpt>
      <trkpt lat="52.269727" lon="4.975572">
        <ele>0.431502</ele>
        <time>2026-02-17T18:32:13.250Z</time>
      </trkpt>
      <trkpt lat="52.269781" lon="4.975395">
        <ele>0.486680</ele>
        <time>2026-02-17T18:32:15.091Z</time>
      </trkpt>
      <trkpt lat="52.269991" lon="4.974267">
        <ele>0.815619</ele>
        <time>2026-02-17T18:32:27.025Z</time>
      </trkpt>
      <trkpt lat="52.270005" lon="4.974193">
        <ele>0.837229</ele>
        <time>2026-02-17T18:32:27.823Z</time>
      </trkpt>
      <trkpt lat="52.270048" lon="4.974062">
        <ele>0.878702</ele>
        <time>2026-02-17T18:32:29.956Z</time>
      </trkpt>
      <trkpt lat="52.270126" lon="4.973893">
        <ele>0.937757</ele>
        <time>2026-02-17T18:32:33.003Z</time>
      </trkpt>
      <trkpt lat="52.270427" lon="4.974082">
        <ele>1.083826</ele>
        <time>2026-02-17T18:32:40.818Z</time>
      </trkpt>
      <trkpt lat="52.270566" lon="4.974171">
        <ele>1.150034</ele>
        <time>2026-02-17T18:32:44.452Z</time>
      </trkpt>
      <trkpt lat="52.270904" lon="4.974354">
        <ele>1.307946</ele>
        <time>2026-02-17T18:32:52.951Z</time>
      </trkpt>
      <trkpt lat="52.270959" lon="4.974377">
        <ele>1.333123</ele>
        <time>2026-02-17T18:32:54.269Z</time>
      </trkpt>
      <trkpt lat="52.271015" lon="4.974401">
        <ele>1.358799</ele>
        <time>2026-02-17T18:32:55.593Z</time>
      </trkpt>
      <trkpt lat="52.271112" lon="4.974436">
        <ele>1.402853</ele>
        <time>2026-02-17T18:32:57.819Z</time>
      </trkpt>
      <trkpt lat="52.271281" lon="4.974494">
        <ele>1.479437</ele>
        <time>2026-02-17T18:33:01.789Z</time>
      </trkpt>
      <trkpt lat="52.271369" lon="4.974518">
        <ele>1.519004</ele>
        <time>2026-02-17T18:33:03.746Z</time>
      </trkpt>
      <trkpt lat="52.271738" lon="4.974583">
        <ele>1.683599</ele>
        <time>2026-02-17T18:33:11.989Z</time>
      </trkpt>
      <trkpt lat="52.271892" lon="4.974550">
        <ele>1.752480</ele>
        <time>2026-02-17T18:33:15.263Z</time>
      </trkpt>
      <trkpt lat="52.271935" lon="4.974523">
        <ele>1.772909</ele>
        <time>2026-02-17T18:33:16.163Z</time>
      </trkpt>
      <trkpt lat="52.272134" lon="4.974384">
        <ele>1.819887</ele>
        <time>2026-02-17T18:33:20.412Z</time>
      </trkpt>
      <trkpt lat="52.272095" lon="4.974167">
        <ele>1.737747</ele>
        <time>2026-02-17T18:33:22.980Z</time>
      </trkpt>
      <trkpt lat="52.272120" lon="4.973997">
        <ele>1.674247</ele>
        <time>2026-02-17T18:33:24.873Z</time>
      </trkpt>
      <trkpt lat="52.272381" lon="4.973831">
        <ele>1.508019</ele>
        <time>2026-02-17T18:33:29.754Z</time>
      </trkpt>
      <trkpt lat="52.272421" lon="4.973777">
        <ele>1.477225</ele>
        <time>2026-02-17T18:33:30.635Z</time>
      </trkpt>
      <trkpt lat="52.272547" lon="4.973409">
        <ele>1.324074</ele>
        <time>2026-02-17T18:33:35.212Z</time>
      </trkpt>
      <trkpt lat="52.272630" lon="4.973234">
        <ele>1.243660</ele>
        <time>2026-02-17T18:33:37.703Z</time>
      </trkpt>
      <trkpt lat="52.272823" lon="4.973126">
        <ele>1.122581</ele>
        <time>2026-02-17T18:33:41.570Z</time>
      </trkpt>
      <trkpt lat="52.272867" lon="4.972957">
        <ele>1.055878</ele>
        <time>2026-02-17T18:33:43.684Z</time>
      </trkpt>
      <trkpt lat="52.272919" lon="4.972876">
        <ele>1.013241</ele>
        <time>2026-02-17T18:33:44.992Z</time>
      </trkpt>
      <trkpt lat="52.273035" lon="4.972727">
        <ele>0.925671</ele>
        <time>2026-02-17T18:33:46.896Z</time>
      </trkpt>
      <trkpt lat="52.273403" lon="4.972246">
        <ele>0.645079</ele>
        <time>2026-02-17T18:33:52.750Z</time>
      </trkpt>
      <trkpt lat="52.273584" lon="4.971857">
        <ele>0.466396</ele>
        <time>2026-02-17T18:33:56.537Z</time>
      </trkpt>
      <trkpt lat="52.273609" lon="4.971787">
        <ele>0.436761</ele>
        <time>2026-02-17T18:33:57.191Z</time>
      </trkpt>
      <trkpt lat="52.273661" lon="4.971613">
        <ele>0.365959</ele>
        <time>2026-02-17T18:33:58.739Z</time>
      </trkpt>
      <trkpt lat="52.273836" lon="4.970989">
        <ele>0.114982</ele>
        <time>2026-02-17T18:34:04.381Z</time>
      </trkpt>
      <trkpt lat="52.273951" lon="4.970829">
        <ele>0.024735</ele>
        <time>2026-02-17T18:34:06.350Z</time>
      </trkpt>
      <trkpt lat="52.274102" lon="4.970748">
        <ele>-0.070230</ele>
        <time>2026-02-17T18:34:08.406Z</time>
      </trkpt>
      <trkpt lat="52.274272" lon="4.970689">
        <ele>-0.174078</ele>
        <time>2026-02-17T18:34:10.648Z</time>
      </trkpt>
      <trkpt lat="52.274237" lon="4.970465">
        <ele>-0.258607</ele>
        <time>2026-02-17T18:34:12.494Z</time>
      </trkpt>
      <trkpt lat="52.274230" lon="4.970414">
        <ele>-0.277717</ele>
        <time>2026-02-17T18:34:13.077Z</time>
      </trkpt>
      <trkpt lat="52.274216" lon="4.970297">
        <ele>-0.316689</ele>
        <time>2026-02-17T18:34:14.423Z</time>
      </trkpt>
      <trkpt lat="52.274208" lon="4.970231">
        <ele>-0.337071</ele>
        <time>2026-02-17T18:34:15.184Z</time>
      </trkpt>
      <trkpt lat="52.274204" lon="4.970191">
        <ele>-0.349349</ele>
        <time>2026-02-17T18:34:15.515Z</time>
      </trkpt>
      <trkpt lat="52.274171" lon="4.969925">
        <ele>-0.431568</ele>
        <time>2026-02-17T18:34:17.738Z</time>
      </trkpt>
      <trkpt lat="52.274156" lon="4.969757">
        <ele>-0.482999</ele>
        <time>2026-02-17T18:34:19.145Z</time>
      </trkpt>
      <trkpt lat="52.274155" lon="4.968923">
        <ele>-0.735643</ele>
        <time>2026-02-17T18:34:26.135Z</time>
      </trkpt>
      <trkpt lat="52.274036" lon="4.968129">
        <ele>-0.983280</ele>
        <time>2026-02-17T18:34:32.599Z</time>
      </trkpt>
      <trkpt lat="52.274016" lon="4.967937">
        <ele>-1.042279</ele>
        <time>2026-02-17T18:34:34.135Z</time>
      </trkpt>
      <trkpt lat="52.273994" lon="4.967722">
        <ele>-1.108314</ele>
        <time>2026-02-17T18:34:35.886Z</time>
      </trkpt>
      <trkpt lat="52.274035" lon="4.967630">
        <ele>-1.142792</ele>
        <time>2026-02-17T18:34:36.820Z</time>
      </trkpt>
      <trkpt lat="52.274035" lon="4.967519">
        <ele>-1.176417</ele>
        <time>2026-02-17T18:34:37.710Z</time>
      </trkpt>
      <trkpt lat="52.274141" lon="4.967467">
        <ele>-1.221995</ele>
        <time>2026-02-17T18:34:39.777Z</time>
      </trkpt>
      <trkpt lat="52.274218" lon="4.967431">
        <ele>-1.253766</ele>
        <time>2026-02-17T18:34:41.288Z</time>
      </trkpt>
      <trkpt lat="52.274255" lon="4.967343">
        <ele>-1.279682</ele>
        <time>2026-02-17T18:34:42.548Z</time>
      </trkpt>
      <trkpt lat="52.274345" lon="4.967369">
        <ele>-1.315938</ele>
        <time>2026-02-17T18:34:44.302Z</time>
      </trkpt>
      <trkpt lat="52.274563" lon="4.967284">
        <ele>-1.404843</ele>
        <time>2026-02-17T18:34:48.627Z</time>
      </trkpt>
      <trkpt lat="52.274624" lon="4.967260">
        <ele>-1.429732</ele>
        <time>2026-02-17T18:34:49.831Z</time>
      </trkpt>
      <trkpt lat="52.274806" lon="4.967190">
        <ele>-1.503902</ele>
        <time>2026-02-17T18:34:53.376Z</time>
      </trkpt>
      <trkpt lat="52.275030" lon="4.967103">
        <ele>-1.595235</ele>
        <time>2026-02-17T18:34:57.695Z</time>
      </trkpt>
      <trkpt lat="52.275116" lon="4.967096">
        <ele>-1.629393</ele>
        <time>2026-02-17T18:34:59.282Z</time>
      </trkpt>
      <trkpt lat="52.275195" lon="4.967149">
        <ele>-1.663269</ele>
        <time>2026-02-17T18:35:00.850Z</time>
      </trkpt>
      <trkpt lat="52.275329" lon="4.967322">
        <ele>-1.731009</ele>
        <time>2026-02-17T18:35:03.991Z</time>
      </trkpt>
      <trkpt lat="52.275415" lon="4.967160">
        <ele>-1.783067</ele>
        <time>2026-02-17T18:35:05.717Z</time>
      </trkpt>
      <trkpt lat="52.275834" lon="4.966363">
        <ele>-2.012403</ele>
        <time>2026-02-17T18:35:14.738Z</time>
      </trkpt>
      <trkpt lat="52.276002" lon="4.965760">
        <ele>-2.143639</ele>
        <time>2026-02-17T18:35:20.202Z</time>
      </trkpt>
      <trkpt lat="52.276064" lon="4.965355">
        <ele>-2.226329</ele>
        <time>2026-02-17T18:35:23.535Z</time>
      </trkpt>
      <trkpt lat="52.276058" lon="4.964374">
        <ele>-2.420645</ele>
        <time>2026-02-17T18:35:31.703Z</time>
      </trkpt>
      <trkpt lat="52.276079" lon="4.964241">
        <ele>-2.447851</ele>
        <time>2026-02-17T18:35:32.898Z</time>
      </trkpt>
      <trkpt lat="52.276186" lon="4.963906">
        <ele>-2.477733</ele>
        <time>2026-02-17T18:35:36.225Z</time>
      </trkpt>
      <trkpt lat="52.276618" lon="4.962849">
        <ele>-2.460566</ele>
        <time>2026-02-17T18:35:48.032Z</time>
      </trkpt>
      <trkpt lat="52.277098" lon="4.962161">
        <ele>-2.446475</ele>
        <time>2026-02-17T18:35:57.974Z</time>
      </trkpt>
      <trkpt lat="52.277444" lon="4.961738">
        <ele>-2.457498</ele>
        <time>2026-02-17T18:36:04.275Z</time>
      </trkpt>
      <trkpt lat="52.277596" lon="4.961530">
        <ele>-2.475810</ele>
        <time>2026-02-17T18:36:07.113Z</time>
      </trkpt>
      <trkpt lat="52.277767" lon="4.961262">
        <ele>-2.497693</ele>
        <time>2026-02-17T18:36:10.460Z</time>
      </trkpt>
      <trkpt lat="52.277894" lon="4.960967">
        <ele>-2.518078</ele>
        <time>2026-02-17T18:36:13.604Z</time>
      </trkpt>
      <trkpt lat="52.278047" lon="4.960352">
        <ele>-2.555598</ele>
        <time>2026-02-17T18:36:19.363Z</time>
      </trkpt>
      <trkpt lat="52.278142" lon="4.959706">
        <ele>-2.593146</ele>
        <time>2026-02-17T18:36:25.118Z</time>
      </trkpt>
      <trkpt lat="52.278150" lon="4.958534">
        <ele>-2.335038</ele>
        <time>2026-02-17T18:36:36.092Z</time>
      </trkpt>
      <trkpt lat="52.278393" lon="4.957690">
        <ele>-2.061099</ele>
        <time>2026-02-17T18:36:45.694Z</time>
      </trkpt>
      <trkpt lat="52.278462" lon="4.957215">
        <ele>-1.917724</ele>
        <time>2026-02-17T18:36:51.126Z</time>
      </trkpt>
      <trkpt lat="52.278467" lon="4.957019">
        <ele>-1.860113</ele>
        <time>2026-02-17T18:36:53.371Z</time>
      </trkpt>
      <trkpt lat="52.278407" lon="4.956529">
        <ele>-1.747043</ele>
        <time>2026-02-17T18:36:59.026Z</time>
      </trkpt>
      <trkpt lat="52.278348" lon="4.956301">
        <ele>-1.755093</ele>
        <time>2026-02-17T18:37:01.791Z</time>
      </trkpt>
      <trkpt lat="52.278155" lon="4.955771">
        <ele>-1.775147</ele>
        <time>2026-02-17T18:37:08.280Z</time>
      </trkpt>
      <trkpt lat="52.278103" lon="4.955501">
        <ele>-1.784351</ele>
        <time>2026-02-17T18:37:10.999Z</time>
      </trkpt>
      <trkpt lat="52.278081" lon="4.955193">
        <ele>-1.794434</ele>
        <time>2026-02-17T18:37:13.767Z</time>
      </trkpt>
      <trkpt lat="52.277965" lon="4.954475">
        <ele>-1.818581</ele>
        <time>2026-02-17T18:37:19.953Z</time>
      </trkpt>
      <trkpt lat="52.277841" lon="4.953613">
        <ele>-1.932525</ele>
        <time>2026-02-17T18:37:26.696Z</time>
      </trkpt>
      <trkpt lat="52.277856" lon="4.953193">
        <ele>-2.090027</ele>
        <time>2026-02-17T18:37:29.796Z</time>
      </trkpt>
      <trkpt lat="52.277994" lon="4.952609">
        <ele>-2.324398</ele>
        <time>2026-02-17T18:37:34.442Z</time>
      </trkpt>
      <trkpt lat="52.278047" lon="4.952233">
        <ele>-2.468848</ele>
        <time>2026-02-17T18:37:37.388Z</time>
      </trkpt>
      <trkpt lat="52.278086" lon="4.951502">
        <ele>-2.743549</ele>
        <time>2026-02-17T18:37:43.449Z</time>
      </trkpt>
      <trkpt lat="52.278177" lon="4.950558">
        <ele>-2.924145</ele>
        <time>2026-02-17T18:37:52.187Z</time>
      </trkpt>
      <trkpt lat="52.278322" lon="4.949495">
        <ele>-2.884541</ele>
        <time>2026-02-17T18:38:02.327Z</time>
      </trkpt>
      <trkpt lat="52.278441" lon="4.948908">
        <ele>-2.862054</ele>
        <time>2026-02-17T18:38:07.964Z</time>
      </trkpt>
      <trkpt lat="52.278699" lon="4.948104">
        <ele>-2.813688</ele>
        <time>2026-02-17T18:38:16.235Z</time>
      </trkpt>
      <trkpt lat="52.278786" lon="4.947833">
        <ele>-2.758609</ele>
        <time>2026-02-17T18:38:19.154Z</time>
      </trkpt>
      <trkpt lat="52.278825" lon="4.947501">
        <ele>-2.697768</ele>
        <time>2026-02-17T18:38:22.456Z</time>
      </trkpt>
      <trkpt lat="52.278831" lon="4.947170">
        <ele>-2.638171</ele>
        <time>2026-02-17T18:38:25.780Z</time>
      </trkpt>
      <trkpt lat="52.278790" lon="4.946456">
        <ele>-2.509108</ele>
        <time>2026-02-17T18:38:33.054Z</time>
      </trkpt>
      <trkpt lat="52.278749" lon="4.946172">
        <ele>-2.456592</ele>
        <time>2026-02-17T18:38:36.018Z</time>
      </trkpt>
      <trkpt lat="52.278721" lon="4.945979">
        <ele>-2.420895</ele>
        <time>2026-02-17T18:38:38.016Z</time>
      </trkpt>
      <trkpt lat="52.278555" lon="4.945366">
        <ele>-2.306262</ele>
        <time>2026-02-17T18:38:44.770Z</time>
      </trkpt>
      <trkpt lat="52.278145" lon="4.944474">
        <ele>-2.441211</ele>
        <time>2026-02-17T18:38:54.866Z</time>
      </trkpt>
      <trkpt lat="52.278050" lon="4.944022">
        <ele>-2.499020</ele>
        <time>2026-02-17T18:38:58.832Z</time>
      </trkpt>
      <trkpt lat="52.277971" lon="4.942973">
        <ele>-2.626863</ele>
        <time>2026-02-17T18:39:07.430Z</time>
      </trkpt>
      <trkpt lat="52.277984" lon="4.942695">
        <ele>-2.659890</ele>
        <time>2026-02-17T18:39:09.718Z</time>
      </trkpt>
      <trkpt lat="52.278034" lon="4.942405">
        <ele>-2.674295</ele>
        <time>2026-02-17T18:39:12.211Z</time>
      </trkpt>
      <trkpt lat="52.278221" lon="4.941928">
        <ele>-2.701381</ele>
        <time>2026-02-17T18:39:16.947Z</time>
      </trkpt>
      <trkpt lat="52.278729" lon="4.940977">
        <ele>-2.761740</ele>
        <time>2026-02-17T18:39:28.320Z</time>
      </trkpt>
      <trkpt lat="52.278892" lon="4.940591">
        <ele>-2.784164</ele>
        <time>2026-02-17T18:39:32.730Z</time>
      </trkpt>
      <trkpt lat="52.278960" lon="4.940273">
        <ele>-2.799430</ele>
        <time>2026-02-17T18:39:35.965Z</time>
      </trkpt>
      <trkpt lat="52.278989" lon="4.939322">
        <ele>-2.709018</ele>
        <time>2026-02-17T18:39:45.349Z</time>
      </trkpt>
      <trkpt lat="52.279199" lon="4.938578">
        <ele>-2.631218</ele>
        <time>2026-02-17T18:39:53.224Z</time>
      </trkpt>
      <trkpt lat="52.279257" lon="4.938166">
        <ele>-2.591075</ele>
        <time>2026-02-17T18:39:57.206Z</time>
      </trkpt>
      <trkpt lat="52.279341" lon="4.937387">
        <ele>-2.525089</ele>
        <time>2026-02-17T18:40:04.550Z</time>
      </trkpt>
      <trkpt lat="52.279396" lon="4.937191">
        <ele>-2.542920</ele>
        <time>2026-02-17T18:40:06.498Z</time>
      </trkpt>
      <trkpt lat="52.279607" lon="4.936845">
        <ele>-2.583317</ele>
        <time>2026-02-17T18:40:10.743Z</time>
      </trkpt>
      <trkpt lat="52.279838" lon="4.936483">
        <ele>-2.626571</ele>
        <time>2026-02-17T18:40:15.134Z</time>
      </trkpt>
      <trkpt lat="52.280001" lon="4.936169">
        <ele>-2.660623</ele>
        <time>2026-02-17T18:40:18.604Z</time>
      </trkpt>
      <trkpt lat="52.280244" lon="4.935314">
        <ele>-2.738580</ele>
        <time>2026-02-17T18:40:26.763Z</time>
      </trkpt>
      <trkpt lat="52.280520" lon="4.934116">
        <ele>-2.675105</ele>
        <time>2026-02-17T18:40:38.550Z</time>
      </trkpt>
      <trkpt lat="52.280582" lon="4.933755">
        <ele>-2.640882</ele>
        <time>2026-02-17T18:40:42.154Z</time>
      </trkpt>
      <trkpt lat="52.280564" lon="4.933446">
        <ele>-2.612552</ele>
        <time>2026-02-17T18:40:45.171Z</time>
      </trkpt>
      <trkpt lat="52.280445" lon="4.932818">
        <ele>-2.552546</ele>
        <time>2026-02-17T18:40:51.621Z</time>
      </trkpt>
      <trkpt lat="52.280397" lon="4.932224">
        <ele>-2.497859</ele>
        <time>2026-02-17T18:40:57.443Z</time>
      </trkpt>
      <trkpt lat="52.280300" lon="4.931582">
        <ele>-2.485351</ele>
        <time>2026-02-17T18:41:03.837Z</time>
      </trkpt>
      <trkpt lat="52.279785" lon="4.930034">
        <ele>-2.456957</ele>
        <time>2026-02-17T18:41:19.668Z</time>
      </trkpt>
      <trkpt lat="52.279378" lon="4.929052">
        <ele>-2.461417</ele>
        <time>2026-02-17T18:41:30.004Z</time>
      </trkpt>
      <trkpt lat="52.279338" lon="4.928801">
        <ele>-2.466719</ele>
        <time>2026-02-17T18:41:32.303Z</time>
      </trkpt>
      <trkpt lat="52.279310" lon="4.928374">
        <ele>-2.475496</ele>
        <time>2026-02-17T18:41:36.151Z</time>
      </trkpt>
      <trkpt lat="52.279306" lon="4.927946">
        <ele>-2.484245</ele>
        <time>2026-02-17T18:41:40.065Z</time>
      </trkpt>
      <trkpt lat="52.279313" lon="4.927477">
        <ele>-2.493834</ele>
        <time>2026-02-17T18:41:44.421Z</time>
      </trkpt>
      <trkpt lat="52.279367" lon="4.926688">
        <ele>-2.512749</ele>
        <time>2026-02-17T18:41:51.721Z</time>
      </trkpt>
      <trkpt lat="52.279387" lon="4.926432">
        <ele>-2.526184</ele>
        <time>2026-02-17T18:41:54.054Z</time>
      </trkpt>
      <trkpt lat="52.279399" lon="4.926317">
        <ele>-2.532257</ele>
        <time>2026-02-17T18:41:55.109Z</time>
      </trkpt>
      <trkpt lat="52.279425" lon="4.926137">
        <ele>-2.541885</ele>
        <time>2026-02-17T18:41:57.369Z</time>
      </trkpt>
      <trkpt lat="52.279438" lon="4.926012">
        <ele>-2.548485</ele>
        <time>2026-02-17T18:41:58.497Z</time>
      </trkpt>
      <trkpt lat="52.279409" lon="4.926001">
        <ele>-2.551018</ele>
        <time>2026-02-17T18:41:58.916Z</time>
      </trkpt>
      <trkpt lat="52.278368" lon="4.925715">
        <ele>-2.640836</ele>
        <time>2026-02-17T18:42:13.943Z</time>
      </trkpt>
      <trkpt lat="52.278202" lon="4.925699">
        <ele>-2.654985</ele>
        <time>2026-02-17T18:42:16.285Z</time>
      </trkpt>
      <trkpt lat="52.278008" lon="4.925734">
        <ele>-2.630510</ele>
        <time>2026-02-17T18:42:19.082Z</time>
      </trkpt>
      <trkpt lat="52.277743" lon="4.925877">
        <ele>-2.558872</ele>
        <time>2026-02-17T18:42:23.151Z</time>
      </trkpt>
      <trkpt lat="52.276935" lon="4.926440">
        <ele>-2.333395</ele>
        <time>2026-02-17T18:42:37.271Z</time>
      </trkpt>
      <trkpt lat="52.276812" lon="4.926490">
        <ele>-2.300859</ele>
        <time>2026-02-17T18:42:39.391Z</time>
      </trkpt>
      <trkpt lat="52.276393" lon="4.926477">
        <ele>-2.194921</ele>
        <time>2026-02-17T18:42:46.550Z</time>
      </trkpt>
      <trkpt lat="52.276153" lon="4.926458">
        <ele>-2.149123</ele>
        <time>2026-02-17T18:42:50.712Z</time>
      </trkpt>
      <trkpt lat="52.275397" lon="4.926394">
        <ele>-2.004834</ele>
        <time>2026-02-17T18:43:02.947Z</time>
      </trkpt>
      <trkpt lat="52.275319" lon="4.926407">
        <ele>-1.989890</ele>
        <time>2026-02-17T18:43:04.154Z</time>
      </trkpt>
      <trkpt lat="52.275230" lon="4.926437">
        <ele>-1.972569</ele>
        <time>2026-02-17T18:43:05.547Z</time>
      </trkpt>
      <trkpt lat="52.274788" lon="4.926833">
        <ele>-1.876494</ele>
        <time>2026-02-17T18:43:12.826Z</time>
      </trkpt>
      <trkpt lat="52.274038" lon="4.927360">
        <ele>-2.047829</ele>
        <time>2026-02-17T18:43:24.151Z</time>
      </trkpt>
      <trkpt lat="52.273894" lon="4.927431">
        <ele>-2.088112</ele>
        <time>2026-02-17T18:43:26.227Z</time>
      </trkpt>
      <trkpt lat="52.273660" lon="4.927445">
        <ele>-2.150825</ele>
        <time>2026-02-17T18:43:29.500Z</time>
      </trkpt>
      <trkpt lat="52.273417" lon="4.927286">
        <ele>-2.220928</ele>
        <time>2026-02-17T18:43:33.165Z</time>
      </trkpt>
      <trkpt lat="52.273140" lon="4.927022">
        <ele>-2.306809</ele>
        <time>2026-02-17T18:43:37.592Z</time>
      </trkpt>
      <trkpt lat="52.272712" lon="4.926384">
        <ele>-2.407201</ele>
        <time>2026-02-17T18:43:45.514Z</time>
      </trkpt>
      <trkpt lat="52.272623" lon="4.926294">
        <ele>-2.422795</ele>
        <time>2026-02-17T18:43:46.973Z</time>
      </trkpt>
      <trkpt lat="52.272532" lon="4.926257">
        <ele>-2.436767</ele>
        <time>2026-02-17T18:43:48.275Z</time>
      </trkpt>
      <trkpt lat="52.272427" lon="4.926288">
        <ele>-2.452665</ele>
        <time>2026-02-17T18:43:49.766Z</time>
      </trkpt>
      <trkpt lat="52.272238" lon="4.926441">
        <ele>-2.484090</ele>
        <time>2026-02-17T18:43:52.729Z</time>
      </trkpt>
      <trkpt lat="52.272140" lon="4.926543">
        <ele>-2.501402</ele>
        <time>2026-02-17T18:43:54.354Z</time>
      </trkpt>
      <trkpt lat="52.271991" lon="4.926800">
        <ele>-2.533680</ele>
        <time>2026-02-17T18:43:57.447Z</time>
      </trkpt>
      <trkpt lat="52.271757" lon="4.927550">
        <ele>-2.597122</ele>
        <time>2026-02-17T18:44:05.074Z</time>
      </trkpt>
      <trkpt lat="52.271685" lon="4.927696">
        <ele>-2.555925</ele>
        <time>2026-02-17T18:44:06.824Z</time>
      </trkpt>
      <trkpt lat="52.271584" lon="4.927779">
        <ele>-2.515335</ele>
        <time>2026-02-17T18:44:08.590Z</time>
      </trkpt>
      <trkpt lat="52.271182" lon="4.927858">
        <ele>-2.369960</ele>
        <time>2026-02-17T18:44:15.196Z</time>
      </trkpt>
      <trkpt lat="52.270497" lon="4.928218">
        <ele>-2.111610</ele>
        <time>2026-02-17T18:44:27.092Z</time>
      </trkpt>
      <trkpt lat="52.270347" lon="4.928351">
        <ele>-2.050337</ele>
        <time>2026-02-17T18:44:29.936Z</time>
      </trkpt>
      <trkpt lat="52.270226" lon="4.928522">
        <ele>-1.992901</ele>
        <time>2026-02-17T18:44:32.632Z</time>
      </trkpt>
      <trkpt lat="52.269967" lon="4.929061">
        <ele>-1.905830</ele>
        <time>2026-02-17T18:44:39.777Z</time>
      </trkpt>
      <trkpt lat="52.269867" lon="4.929167">
        <ele>-1.885984</ele>
        <time>2026-02-17T18:44:41.786Z</time>
      </trkpt>
      <trkpt lat="52.269635" lon="4.929246">
        <ele>-1.846527</ele>
        <time>2026-02-17T18:44:45.686Z</time>
      </trkpt>
      <trkpt lat="52.269347" lon="4.929287">
        <ele>-1.798394</ele>
        <time>2026-02-17T18:44:50.304Z</time>
      </trkpt>
      <trkpt lat="52.269061" lon="4.929253">
        <ele>-1.750650</ele>
        <time>2026-02-17T18:44:54.593Z</time>
      </trkpt>
      <trkpt lat="52.268787" lon="4.929121">
        <ele>-1.703088</ele>
        <time>2026-02-17T18:44:58.711Z</time>
      </trkpt>
      <trkpt lat="52.268344" lon="4.928760">
        <ele>-1.720900</ele>
        <time>2026-02-17T18:45:05.671Z</time>
      </trkpt>
      <trkpt lat="52.268276" lon="4.928660">
        <ele>-1.743268</ele>
        <time>2026-02-17T18:45:06.923Z</time>
      </trkpt>
      <trkpt lat="52.268163" lon="4.928394">
        <ele>-1.791719</ele>
        <time>2026-02-17T18:45:09.601Z</time>
      </trkpt>
      <trkpt lat="52.268031" lon="4.927975">
        <ele>-1.862233</ele>
        <time>2026-02-17T18:45:13.442Z</time>
      </trkpt>
      <trkpt lat="52.267734" lon="4.926206">
        <ele>-2.096354</ele>
        <time>2026-02-17T18:45:29.132Z</time>
      </trkpt>
      <trkpt lat="52.267625" lon="4.925778">
        <ele>-2.087219</ele>
        <time>2026-02-17T18:45:33.385Z</time>
      </trkpt>
      <trkpt lat="52.267479" lon="4.925351">
        <ele>-2.077581</ele>
        <time>2026-02-17T18:45:37.912Z</time>
      </trkpt>
      <trkpt lat="52.267223" lon="4.924828">
        <ele>-2.064384</ele>
        <time>2026-02-17T18:45:44.145Z</time>
      </trkpt>
      <trkpt lat="52.266953" lon="4.924499">
        <ele>-2.053539</ele>
        <time>2026-02-17T18:45:49.267Z</time>
      </trkpt>
      <trkpt lat="52.266581" lon="4.924262">
        <ele>-2.036037</ele>
        <time>2026-02-17T18:45:55.308Z</time>
      </trkpt>
      <trkpt lat="52.265918" lon="4.924029">
        <ele>-1.972835</ele>
        <time>2026-02-17T18:46:05.428Z</time>
      </trkpt>
      <trkpt lat="52.265299" lon="4.923853">
        <ele>-1.914280</ele>
        <time>2026-02-17T18:46:14.856Z</time>
      </trkpt>
      <trkpt lat="52.264962" lon="4.923799">
        <ele>-1.882722</ele>
        <time>2026-02-17T18:46:20.108Z</time>
      </trkpt>
      <trkpt lat="52.264462" lon="4.923749">
        <ele>-1.796704</ele>
        <time>2026-02-17T18:46:28.102Z</time>
      </trkpt>
      <trkpt lat="52.263845" lon="4.923739">
        <ele>-1.681898</ele>
        <time>2026-02-17T18:46:37.930Z</time>
      </trkpt>
      <trkpt lat="52.263662" lon="4.923633">
        <ele>-1.645772</ele>
        <time>2026-02-17T18:46:41.014Z</time>
      </trkpt>
      <trkpt lat="52.263473" lon="4.923431">
        <ele>-1.603751</ele>
        <time>2026-02-17T18:46:44.555Z</time>
      </trkpt>
      <trkpt lat="52.263188" lon="4.923028">
        <ele>-1.544827</ele>
        <time>2026-02-17T18:46:50.339Z</time>
      </trkpt>
      <trkpt lat="52.262937" lon="4.922524">
        <ele>-1.585573</ele>
        <time>2026-02-17T18:46:56.201Z</time>
      </trkpt>
      <trkpt lat="52.262735" lon="4.921927">
        <ele>-1.628349</ele>
        <time>2026-02-17T18:47:02.131Z</time>
      </trkpt>
      <trkpt lat="52.262677" lon="4.921689">
        <ele>-1.644414</ele>
        <time>2026-02-17T18:47:04.357Z</time>
      </trkpt>
      <trkpt lat="52.262529" lon="4.920660">
        <ele>-1.710698</ele>
        <time>2026-02-17T18:47:13.607Z</time>
      </trkpt>
      <trkpt lat="52.262107" lon="4.918790">
        <ele>-1.856073</ele>
        <time>2026-02-17T18:47:30.971Z</time>
      </trkpt>
      <trkpt lat="52.262019" lon="4.918535">
        <ele>-1.877817</ele>
        <time>2026-02-17T18:47:33.508Z</time>
      </trkpt>
      <trkpt lat="52.261838" lon="4.918167">
        <ele>-1.912883</ele>
        <time>2026-02-17T18:47:37.642Z</time>
      </trkpt>
      <trkpt lat="52.261687" lon="4.917953">
        <ele>-1.937141</ele>
        <time>2026-02-17T18:47:40.497Z</time>
      </trkpt>
      <trkpt lat="52.261612" lon="4.917890">
        <ele>-1.937818</ele>
        <time>2026-02-17T18:47:41.720Z</time>
      </trkpt>
      <trkpt lat="52.261477" lon="4.917834">
        <ele>-1.913979</ele>
        <time>2026-02-17T18:47:43.727Z</time>
      </trkpt>
      <trkpt lat="52.261194" lon="4.917859">
        <ele>-1.865472</ele>
        <time>2026-02-17T18:47:47.822Z</time>
      </trkpt>
      <trkpt lat="52.259601" lon="4.918319">
        <ele>-1.530640</ele>
        <time>2026-02-17T18:48:13.360Z</time>
      </trkpt>
      <trkpt lat="52.259255" lon="4.918379">
        <ele>-1.397603</ele>
        <time>2026-02-17T18:48:19.272Z</time>
      </trkpt>
      <trkpt lat="52.258785" lon="4.918274">
        <ele>-1.216224</ele>
        <time>2026-02-17T18:48:27.286Z</time>
      </trkpt>
      <trkpt lat="52.258152" lon="4.918063">
        <ele>-0.969208</ele>
        <time>2026-02-17T18:48:38.094Z</time>
      </trkpt>
      <trkpt lat="52.257828" lon="4.917871">
        <ele>-0.954720</ele>
        <time>2026-02-17T18:48:43.583Z</time>
      </trkpt>
      <trkpt lat="52.257602" lon="4.917705">
        <ele>-0.960617</ele>
        <time>2026-02-17T18:48:47.369Z</time>
      </trkpt>
      <trkpt lat="52.257299" lon="4.917340">
        <ele>-0.969577</ele>
        <time>2026-02-17T18:48:52.943Z</time>
      </trkpt>
      <trkpt lat="52.256765" lon="4.916584">
        <ele>-0.986395</ele>
        <time>2026-02-17T18:49:03.013Z</time>
      </trkpt>
      <trkpt lat="52.256542" lon="4.916310">
        <ele>-1.018131</ele>
        <time>2026-02-17T18:49:06.894Z</time>
      </trkpt>
      <trkpt lat="52.256326" lon="4.915971">
        <ele>-1.100388</ele>
        <time>2026-02-17T18:49:11.009Z</time>
      </trkpt>
      <trkpt lat="52.255790" lon="4.914759">
        <ele>-1.351740</ele>
        <time>2026-02-17T18:49:23.521Z</time>
      </trkpt>
      <trkpt lat="52.255415" lon="4.914097">
        <ele>-1.493520</ele>
        <time>2026-02-17T18:49:31.109Z</time>
      </trkpt>
      <trkpt lat="52.255189" lon="4.913621">
        <ele>-1.541654</ele>
        <time>2026-02-17T18:49:36.337Z</time>
      </trkpt>
      <trkpt lat="52.254971" lon="4.913340">
        <ele>-1.577902</ele>
        <time>2026-02-17T18:49:40.339Z</time>
      </trkpt>
      <trkpt lat="52.254670" lon="4.913103">
        <ele>-1.621518</ele>
        <time>2026-02-17T18:49:45.176Z</time>
      </trkpt>
      <trkpt lat="52.254164" lon="4.912318">
        <ele>-1.712607</ele>
        <time>2026-02-17T18:49:55.172Z</time>
      </trkpt>
      <trkpt lat="52.253882" lon="4.911996">
        <ele>-1.672620</ele>
        <time>2026-02-17T18:50:00.360Z</time>
      </trkpt>
      <trkpt lat="52.253618" lon="4.911755">
        <ele>-1.624214</ele>
        <time>2026-02-17T18:50:04.979Z</time>
      </trkpt>
      <trkpt lat="52.253308" lon="4.911550">
        <ele>-1.570684</ele>
        <time>2026-02-17T18:50:10.230Z</time>
      </trkpt>
      <trkpt lat="52.252814" lon="4.910941">
        <ele>-1.471625</ele>
        <time>2026-02-17T18:50:19.939Z</time>
      </trkpt>
      <trkpt lat="52.252675" lon="4.910692">
        <ele>-1.438606</ele>
        <time>2026-02-17T18:50:23.236Z</time>
      </trkpt>
      <trkpt lat="52.252571" lon="4.910366">
        <ele>-1.472717</ele>
        <time>2026-02-17T18:50:26.800Z</time>
      </trkpt>
      <trkpt lat="52.252509" lon="4.909847">
        <ele>-1.546605</ele>
        <time>2026-02-17T18:50:31.800Z</time>
      </trkpt>
      <trkpt lat="52.252529" lon="4.909642">
        <ele>-1.575611</ele>
        <time>2026-02-17T18:50:33.702Z</time>
      </trkpt>
      <trkpt lat="52.252561" lon="4.909410">
        <ele>-1.608841</ele>
        <time>2026-02-17T18:50:35.832Z</time>
      </trkpt>
      <trkpt lat="52.252853" lon="4.908332">
        <ele>-1.773556</ele>
        <time>2026-02-17T18:50:45.536Z</time>
      </trkpt>
      <trkpt lat="52.253025" lon="4.907306">
        <ele>-1.905812</ele>
        <time>2026-02-17T18:50:53.893Z</time>
      </trkpt>
      <trkpt lat="52.253109" lon="4.906684">
        <ele>-1.976623</ele>
        <time>2026-02-17T18:50:58.991Z</time>
      </trkpt>
      <trkpt lat="52.253229" lon="4.905890">
        <ele>-2.067542</ele>
        <time>2026-02-17T18:51:05.972Z</time>
      </trkpt>
      <trkpt lat="52.253326" lon="4.905045">
        <ele>-2.163118</ele>
        <time>2026-02-17T18:51:14.240Z</time>
      </trkpt>
      <trkpt lat="52.253370" lon="4.903849">
        <ele>-1.975407</ele>
        <time>2026-02-17T18:51:27.038Z</time>
      </trkpt>
      <trkpt lat="52.253374" lon="4.903707">
        <ele>-1.951483</ele>
        <time>2026-02-17T18:51:28.518Z</time>
      </trkpt>
      <trkpt lat="52.253342" lon="4.903153">
        <ele>-1.857828</ele>
        <time>2026-02-17T18:51:34.246Z</time>
      </trkpt>
      <trkpt lat="52.253284" lon="4.902830">
        <ele>-1.801176</ele>
        <time>2026-02-17T18:51:37.590Z</time>
      </trkpt>
      <trkpt lat="52.253177" lon="4.902370">
        <ele>-1.718355</ele>
        <time>2026-02-17T18:51:42.195Z</time>
      </trkpt>
      <trkpt lat="52.253089" lon="4.902444">
        <ele>-1.691144</ele>
        <time>2026-02-17T18:51:43.629Z</time>
      </trkpt>
      <trkpt lat="52.253038" lon="4.902492">
        <ele>-1.674962</ele>
        <time>2026-02-17T18:51:44.470Z</time>
      </trkpt>
      <trkpt lat="52.252916" lon="4.902601">
        <ele>-1.776343</ele>
        <time>2026-02-17T18:51:46.399Z</time>
      </trkpt>
      <trkpt lat="52.252790" lon="4.902192">
        <ele>-1.986692</ele>
        <time>2026-02-17T18:51:50.100Z</time>
      </trkpt>
      <trkpt lat="52.252629" lon="4.901856">
        <ele>-2.182716</ele>
        <time>2026-02-17T18:51:53.371Z</time>
      </trkpt>
      <trkpt lat="52.252213" lon="4.901293">
        <ele>-2.588130</ele>
        <time>2026-02-17T18:52:00.061Z</time>
      </trkpt>
      <trkpt lat="52.251771" lon="4.900787">
        <ele>-2.993178</ele>
        <time>2026-02-17T18:52:06.584Z</time>
      </trkpt>
      <trkpt lat="52.251360" lon="4.900300">
        <ele>-3.166610</ele>
        <time>2026-02-17T18:52:12.719Z</time>
      </trkpt>
      <trkpt lat="52.251163" lon="4.899985">
        <ele>-3.250869</ele>
        <time>2026-02-17T18:52:16.270Z</time>
      </trkpt>
      <trkpt lat="52.250850" lon="4.898967">
        <ele>-3.464028</ele>
        <time>2026-02-17T18:52:26.504Z</time>
      </trkpt>
      <trkpt lat="52.250822" lon="4.898745">
        <ele>-3.506440</ele>
        <time>2026-02-17T18:52:28.742Z</time>
      </trkpt>
      <trkpt lat="52.250835" lon="4.898523">
        <ele>-3.548170</ele>
        <time>2026-02-17T18:52:31.005Z</time>
      </trkpt>
      <trkpt lat="52.251027" lon="4.897636">
        <ele>-3.455487</ele>
        <time>2026-02-17T18:52:40.823Z</time>
      </trkpt>
      <trkpt lat="52.251116" lon="4.896727">
        <ele>-3.320199</ele>
        <time>2026-02-17T18:52:50.460Z</time>
      </trkpt>
      <trkpt lat="52.251162" lon="4.896442">
        <ele>-3.276884</ele>
        <time>2026-02-17T18:52:53.289Z</time>
      </trkpt>
      <trkpt lat="52.251234" lon="4.896205">
        <ele>-3.238001</ele>
        <time>2026-02-17T18:52:55.728Z</time>
      </trkpt>
      <trkpt lat="52.251256" lon="4.896142">
        <ele>-3.227342</ele>
        <time>2026-02-17T18:52:56.392Z</time>
      </trkpt>
      <trkpt lat="52.251529" lon="4.895523">
        <ele>-3.186909</ele>
        <time>2026-02-17T18:53:02.910Z</time>
      </trkpt>
      <trkpt lat="52.251656" lon="4.895367">
        <ele>-3.251179</ele>
        <time>2026-02-17T18:53:05.035Z</time>
      </trkpt>
      <trkpt lat="52.251902" lon="4.895161">
        <ele>-3.362990</ele>
        <time>2026-02-17T18:53:08.705Z</time>
      </trkpt>
      <trkpt lat="52.252051" lon="4.894806">
        <ele>-3.469566</ele>
        <time>2026-02-17T18:53:12.207Z</time>
      </trkpt>
      <trkpt lat="52.252273" lon="4.894382">
        <ele>-3.607713</ele>
        <time>2026-02-17T18:53:16.738Z</time>
      </trkpt>
      <trkpt lat="52.252479" lon="4.893731">
        <ele>-3.789165</ele>
        <time>2026-02-17T18:53:22.761Z</time>
      </trkpt>
      <trkpt lat="52.252863" lon="4.893037">
        <ele>-3.968197</ele>
        <time>2026-02-17T18:53:30.483Z</time>
      </trkpt>
      <trkpt lat="52.252924" lon="4.892885">
        <ele>-3.997564</ele>
        <time>2026-02-17T18:53:31.984Z</time>
      </trkpt>
      <trkpt lat="52.253029" lon="4.892540">
        <ele>-4.059818</ele>
        <time>2026-02-17T18:53:35.192Z</time>
      </trkpt>
      <trkpt lat="52.253110" lon="4.892144">
        <ele>-4.127280</ele>
        <time>2026-02-17T18:53:38.710Z</time>
      </trkpt>
      <trkpt lat="52.253170" lon="4.891540">
        <ele>-4.226149</ele>
        <time>2026-02-17T18:53:44.071Z</time>
      </trkpt>
      <trkpt lat="52.253140" lon="4.891253">
        <ele>-4.273193</ele>
        <time>2026-02-17T18:53:46.726Z</time>
      </trkpt>
      <trkpt lat="52.253093" lon="4.891084">
        <ele>-4.303186</ele>
        <time>2026-02-17T18:53:48.393Z</time>
      </trkpt>
      <trkpt lat="52.253017" lon="4.890914">
        <ele>-4.337199</ele>
        <time>2026-02-17T18:53:50.248Z</time>
      </trkpt>
      <trkpt lat="52.252855" lon="4.890668">
        <ele>-4.382795</ele>
        <time>2026-02-17T18:53:53.339Z</time>
      </trkpt>
      <trkpt lat="52.252599" lon="4.890378">
        <ele>-4.444584</ele>
        <time>2026-02-17T18:53:57.663Z</time>
      </trkpt>
      <trkpt lat="52.252344" lon="4.890088">
        <ele>-4.506211</ele>
        <time>2026-02-17T18:54:02.064Z</time>
      </trkpt>
      <trkpt lat="52.251914" lon="4.889584">
        <ele>-4.611180</ele>
        <time>2026-02-17T18:54:09.726Z</time>
      </trkpt>
      <trkpt lat="52.251559" lon="4.888956">
        <ele>-4.694435</ele>
        <time>2026-02-17T18:54:17.038Z</time>
      </trkpt>
      <trkpt lat="52.251111" lon="4.888417">
        <ele>-4.643890</ele>
        <time>2026-02-17T18:54:24.689Z</time>
      </trkpt>
      <trkpt lat="52.251007" lon="4.888197">
        <ele>-4.628431</ele>
        <time>2026-02-17T18:54:27.245Z</time>
      </trkpt>
      <trkpt lat="52.250860" lon="4.887745">
        <ele>-4.599967</ele>
        <time>2026-02-17T18:54:32.089Z</time>
      </trkpt>
      <trkpt lat="52.250770" lon="4.887295">
        <ele>-4.573638</ele>
        <time>2026-02-17T18:54:36.720Z</time>
      </trkpt>
      <trkpt lat="52.250771" lon="4.886995">
        <ele>-4.556954</ele>
        <time>2026-02-17T18:54:39.679Z</time>
      </trkpt>
      <trkpt lat="52.250807" lon="4.886737">
        <ele>-4.542237</ele>
        <time>2026-02-17T18:54:42.307Z</time>
      </trkpt>
      <trkpt lat="52.250867" lon="4.886530">
        <ele>-4.495912</ele>
        <time>2026-02-17T18:54:44.585Z</time>
      </trkpt>
      <trkpt lat="52.250972" lon="4.886283">
        <ele>-4.408897</ele>
        <time>2026-02-17T18:54:47.633Z</time>
      </trkpt>
      <trkpt lat="52.251135" lon="4.885976">
        <ele>-4.291307</ele>
        <time>2026-02-17T18:54:51.857Z</time>
      </trkpt>
      <trkpt lat="52.251430" lon="4.885539">
        <ele>-4.103072</ele>
        <time>2026-02-17T18:54:58.837Z</time>
      </trkpt>
      <trkpt lat="52.252969" lon="4.884352">
        <ele>-3.329969</ele>
        <time>2026-02-17T18:55:27.105Z</time>
      </trkpt>
      <trkpt lat="52.253130" lon="4.884183">
        <ele>-3.246806</ele>
        <time>2026-02-17T18:55:30.131Z</time>
      </trkpt>
      <trkpt lat="52.253306" lon="4.883918">
        <ele>-3.142790</ele>
        <time>2026-02-17T18:55:33.976Z</time>
      </trkpt>
      <trkpt lat="52.253524" lon="4.883429">
        <ele>-2.981866</ele>
        <time>2026-02-17T18:55:40.140Z</time>
      </trkpt>
      <trkpt lat="52.253601" lon="4.883055">
        <ele>-2.894955</ele>
        <time>2026-02-17T18:55:44.260Z</time>
      </trkpt>
      <trkpt lat="52.253584" lon="4.882652">
        <ele>-2.854808</ele>
        <time>2026-02-17T18:55:48.511Z</time>
      </trkpt>
      <trkpt lat="52.253442" lon="4.881803">
        <ele>-2.767337</ele>
        <time>2026-02-17T18:55:57.540Z</time>
      </trkpt>
      <trkpt lat="52.253346" lon="4.881134">
        <ele>-2.699046</ele>
        <time>2026-02-17T18:56:04.165Z</time>
      </trkpt>
      <trkpt lat="52.253185" lon="4.880381">
        <ele>-2.619775</ele>
        <time>2026-02-17T18:56:11.196Z</time>
      </trkpt>
      <trkpt lat="52.253006" lon="4.879235">
        <ele>-3.133222</ele>
        <time>2026-02-17T18:56:20.339Z</time>
      </trkpt>
      <trkpt lat="52.252882" lon="4.878459">
        <ele>-3.504648</ele>
        <time>2026-02-17T18:56:26.312Z</time>
      </trkpt>
      <trkpt lat="52.252794" lon="4.878045">
        <ele>-3.707611</ele>
        <time>2026-02-17T18:56:29.723Z</time>
      </trkpt>
      <trkpt lat="52.252434" lon="4.877193">
        <ele>-4.056252</ele>
        <time>2026-02-17T18:56:37.771Z</time>
      </trkpt>
      <trkpt lat="52.252113" lon="4.876564">
        <ele>-4.202199</ele>
        <time>2026-02-17T18:56:44.040Z</time>
      </trkpt>
      <trkpt lat="52.251612" lon="4.875701">
        <ele>-4.414169</ele>
        <time>2026-02-17T18:56:54.354Z</time>
      </trkpt>
      <trkpt lat="52.251346" lon="4.875244">
        <ele>-4.417235</ele>
        <time>2026-02-17T18:57:00.729Z</time>
      </trkpt>
      <trkpt lat="52.251083" lon="4.874917">
        <ele>-4.144292</ele>
        <time>2026-02-17T18:57:06.289Z</time>
      </trkpt>
      <trkpt lat="52.250945" lon="4.874701">
        <ele>-3.986459</ele>
        <time>2026-02-17T18:57:09.758Z</time>
      </trkpt>
      <trkpt lat="52.250729" lon="4.874298">
        <ele>-3.715672</ele>
        <time>2026-02-17T18:57:16.083Z</time>
      </trkpt>
      <trkpt lat="52.250663" lon="4.874114">
        <ele>-3.607859</ele>
        <time>2026-02-17T18:57:18.630Z</time>
      </trkpt>
      <trkpt lat="52.250646" lon="4.873909">
        <ele>-3.503273</ele>
        <time>2026-02-17T18:57:21.108Z</time>
      </trkpt>
      <trkpt lat="52.250662" lon="4.873619">
        <ele>-3.356067</ele>
        <time>2026-02-17T18:57:24.705Z</time>
      </trkpt>
      <trkpt lat="52.250829" lon="4.872894">
        <ele>-2.972674</ele>
        <time>2026-02-17T18:57:33.659Z</time>
      </trkpt>
      <trkpt lat="52.250836" lon="4.872241">
        <ele>-2.698689</ele>
        <time>2026-02-17T18:57:40.480Z</time>
      </trkpt>
      <trkpt lat="52.250834" lon="4.868235">
        <ele>-1.539208</ele>
        <time>2026-02-17T18:58:23.108Z</time>
      </trkpt>
      <trkpt lat="52.250820" lon="4.867544">
        <ele>-1.447481</ele>
        <time>2026-02-17T18:58:31.485Z</time>
      </trkpt>
      <trkpt lat="52.250821" lon="4.867251">
        <ele>-1.408608</ele>
        <time>2026-02-17T18:58:34.892Z</time>
      </trkpt>
      <trkpt lat="52.248292" lon="4.867310">
        <ele>-3.162649</ele>
        <time>2026-02-17T18:59:19.760Z</time>
      </trkpt>
      <trkpt lat="52.248092" lon="4.867387">
        <ele>-3.291552</ele>
        <time>2026-02-17T18:59:23.413Z</time>
      </trkpt>
      <trkpt lat="52.245328" lon="4.870378">
        <ele>-4.730008</ele>
        <time>2026-02-17T19:00:24.951Z</time>
      </trkpt>
      <trkpt lat="52.244848" lon="4.870884">
        <ele>-4.683695</ele>
        <time>2026-02-17T19:00:37.448Z</time>
      </trkpt>
      <trkpt lat="52.244249" lon="4.871431">
        <ele>-4.628124</ele>
        <time>2026-02-17T19:00:52.316Z</time>
      </trkpt>
      <trkpt lat="52.244089" lon="4.871577">
        <ele>-4.613655</ele>
        <time>2026-02-17T19:00:56.216Z</time>
      </trkpt>
      <trkpt lat="52.243559" lon="4.872061">
        <ele>-4.565715</ele>
        <time>2026-02-17T19:01:08.585Z</time>
      </trkpt>
      <trkpt lat="52.242329" lon="4.873179">
        <ele>-4.482002</ele>
        <time>2026-02-17T19:01:29.364Z</time>
      </trkpt>
      <trkpt lat="52.242276" lon="4.873228">
        <ele>-4.481086</ele>
        <time>2026-02-17T19:01:30.358Z</time>
      </trkpt>
      <trkpt lat="52.242025" lon="4.872712">
        <ele>-4.475015</ele>
        <time>2026-02-17T19:01:36.794Z</time>
      </trkpt>
      <trkpt lat="52.241518" lon="4.871670">
        <ele>-4.462754</ele>
        <time>2026-02-17T19:01:49.305Z</time>
      </trkpt>
      <trkpt lat="52.239444" lon="4.867421">
        <ele>-5.808744</ele>
        <time>2026-02-17T19:02:33.198Z</time>
      </trkpt>
      <trkpt lat="52.239160" lon="4.866850">
        <ele>-5.913564</ele>
        <time>2026-02-17T19:02:39.570Z</time>
      </trkpt>
      <trkpt lat="52.238517" lon="4.865557">
        <ele>-5.560139</ele>
        <time>2026-02-17T19:02:56.538Z</time>
      </trkpt>
      <trkpt lat="52.238357" lon="4.865236">
        <ele>-5.472317</ele>
        <time>2026-02-17T19:03:01.087Z</time>
      </trkpt>
      <trkpt lat="52.238233" lon="4.864987">
        <ele>-5.404218</ele>
        <time>2026-02-17T19:03:04.530Z</time>
      </trkpt>
      <trkpt lat="52.237146" lon="4.862796">
        <ele>-5.070083</ele>
        <time>2026-02-17T19:03:31.641Z</time>
      </trkpt>
      <trkpt lat="52.237007" lon="4.862515">
        <ele>-5.032698</ele>
        <time>2026-02-17T19:03:34.830Z</time>
      </trkpt>
      <trkpt lat="52.236944" lon="4.862386">
        <ele>-5.018109</ele>
        <time>2026-02-17T19:03:36.260Z</time>
      </trkpt>
      <trkpt lat="52.236142" lon="4.860759">
        <ele>-5.065216</ele>
        <time>2026-02-17T19:03:54.570Z</time>
      </trkpt>
      <trkpt lat="52.235743" lon="4.859948">
        <ele>-5.058954</ele>
        <time>2026-02-17T19:04:04.149Z</time>
      </trkpt>
      <trkpt lat="52.234899" lon="4.858234">
        <ele>-4.799588</ele>
        <time>2026-02-17T19:04:25.822Z</time>
      </trkpt>
      <trkpt lat="52.234251" lon="4.856919">
        <ele>-5.054731</ele>
        <time>2026-02-17T19:04:41.211Z</time>
      </trkpt>
      <trkpt lat="52.234007" lon="4.856422">
        <ele>-5.228629</ele>
        <time>2026-02-17T19:04:45.969Z</time>
      </trkpt>
      <trkpt lat="52.233699" lon="4.855798">
        <ele>-5.447425</ele>
        <time>2026-02-17T19:04:52.061Z</time>
      </trkpt>
      <trkpt lat="52.233619" lon="4.855633">
        <ele>-5.504879</ele>
        <time>2026-02-17T19:04:54.470Z</time>
      </trkpt>
      <trkpt lat="52.233587" lon="4.855567">
        <ele>-5.527860</ele>
        <time>2026-02-17T19:04:55.135Z</time>
      </trkpt>
      <trkpt lat="52.233304" lon="4.854994">
        <ele>-5.575583</ele>
        <time>2026-02-17T19:05:01.230Z</time>
      </trkpt>
      <trkpt lat="52.233046" lon="4.854468">
        <ele>-5.610779</ele>
        <time>2026-02-17T19:05:06.971Z</time>
      </trkpt>
      <trkpt lat="52.232791" lon="4.853949">
        <ele>-5.645529</ele>
        <time>2026-02-17T19:05:13.173Z</time>
      </trkpt>
      <trkpt lat="52.231907" lon="4.852149">
        <ele>-5.595735</ele>
        <time>2026-02-17T19:05:36.183Z</time>
      </trkpt>
      <trkpt lat="52.231684" lon="4.851695">
        <ele>-5.555530</ele>
        <time>2026-02-17T19:05:41.114Z</time>
      </trkpt>
      <trkpt lat="52.231441" lon="4.851200">
        <ele>-5.511703</ele>
        <time>2026-02-17T19:05:46.667Z</time>
      </trkpt>
      <trkpt lat="52.231198" lon="4.850706">
        <ele>-5.486489</ele>
        <time>2026-02-17T19:05:52.406Z</time>
      </trkpt>
      <trkpt lat="52.230981" lon="4.850262">
        <ele>-5.480501</ele>
        <time>2026-02-17T19:05:57.608Z</time>
      </trkpt>
      <trkpt lat="52.230035" lon="4.848325">
        <ele>-5.511814</ele>
        <time>2026-02-17T19:06:20.500Z</time>
      </trkpt>
      <trkpt lat="52.229828" lon="4.847901">
        <ele>-5.579229</ele>
        <time>2026-02-17T19:06:25.179Z</time>
      </trkpt>
      <trkpt lat="52.229419" lon="4.847062">
        <ele>-5.712551</ele>
        <time>2026-02-17T19:06:34.200Z</time>
      </trkpt>
      <trkpt lat="52.229391" lon="4.847005">
        <ele>-5.721636</ele>
        <time>2026-02-17T19:06:34.805Z</time>
      </trkpt>
      <trkpt lat="52.229088" lon="4.846399">
        <ele>-5.818900</ele>
        <time>2026-02-17T19:06:41.169Z</time>
      </trkpt>
      <trkpt lat="52.228921" lon="4.846027">
        <ele>-5.762566</ele>
        <time>2026-02-17T19:06:45.094Z</time>
      </trkpt>
      <trkpt lat="52.228813" lon="4.845599">
        <ele>-5.694918</ele>
        <time>2026-02-17T19:06:49.620Z</time>
      </trkpt>
      <trkpt lat="52.228744" lon="4.845069">
        <ele>-5.615733</ele>
        <time>2026-02-17T19:06:55.049Z</time>
      </trkpt>
      <trkpt lat="52.228544" lon="4.844880">
        <ele>-5.560598</ele>
        <time>2026-02-17T19:06:58.781Z</time>
      </trkpt>
      <trkpt lat="52.228460" lon="4.844696">
        <ele>-5.527061</ele>
        <time>2026-02-17T19:07:01.071Z</time>
      </trkpt>
      <trkpt lat="52.228397" lon="4.844528">
        <ele>-5.498273</ele>
        <time>2026-02-17T19:07:03.080Z</time>
      </trkpt>
      <trkpt lat="52.228346" lon="4.844382">
        <ele>-5.473710</ele>
        <time>2026-02-17T19:07:04.808Z</time>
      </trkpt>
      <trkpt lat="52.228299" lon="4.844252">
        <ele>-5.451649</ele>
        <time>2026-02-17T19:07:06.322Z</time>
      </trkpt>
      <trkpt lat="52.228099" lon="4.843696">
        <ele>-5.330089</ele>
        <time>2026-02-17T19:07:13.048Z</time>
      </trkpt>
      <trkpt lat="52.227957" lon="4.843532">
        <ele>-5.258285</ele>
        <time>2026-02-17T19:07:16.165Z</time>
      </trkpt>
      <trkpt lat="52.228469" lon="4.841433">
        <ele>-4.687002</ele>
        <time>2026-02-17T19:07:38.024Z</time>
      </trkpt>
      <trkpt lat="52.228642" lon="4.840714">
        <ele>-4.214893</ele>
        <time>2026-02-17T19:07:46.456Z</time>
      </trkpt>
      <trkpt lat="52.228690" lon="4.840406">
        <ele>-3.996092</ele>
        <time>2026-02-17T19:07:50.061Z</time>
      </trkpt>
      <trkpt lat="52.228772" lon="4.839681">
        <ele>-3.488524</ele>
        <time>2026-02-17T19:07:58.795Z</time>
      </trkpt>
      <trkpt lat="52.229021" lon="4.838686">
        <ele>-2.748546</ele>
        <time>2026-02-17T19:08:13.457Z</time>
      </trkpt>
      <trkpt lat="52.229025" lon="4.838461">
        <ele>-2.616914</ele>
        <time>2026-02-17T19:08:16.416Z</time>
      </trkpt>
      <trkpt lat="52.229292" lon="4.837523">
        <ele>-2.352606</ele>
        <time>2026-02-17T19:08:27.803Z</time>
      </trkpt>
      <trkpt lat="52.229430" lon="4.836882">
        <ele>-2.178987</ele>
        <time>2026-02-17T19:08:34.556Z</time>
      </trkpt>
      <trkpt lat="52.229422" lon="4.836613">
        <ele>-2.110169</ele>
        <time>2026-02-17T19:08:37.096Z</time>
      </trkpt>
      <trkpt lat="52.229308" lon="4.836255">
        <ele>-2.007064</ele>
        <time>2026-02-17T19:08:40.643Z</time>
      </trkpt>
      <trkpt lat="52.229098" lon="4.836031">
        <ele>-1.902413</ele>
        <time>2026-02-17T19:08:44.010Z</time>
      </trkpt>
      <trkpt lat="52.228898" lon="4.835543">
        <ele>-1.972570</ele>
        <time>2026-02-17T19:08:48.696Z</time>
      </trkpt>
      <trkpt lat="52.228143" lon="4.834532">
        <ele>-2.266354</ele>
        <time>2026-02-17T19:09:02.334Z</time>
      </trkpt>
      <trkpt lat="52.226498" lon="4.832465">
        <ele>-2.685095</ele>
        <time>2026-02-17T19:09:31.387Z</time>
      </trkpt>
      <trkpt lat="52.225988" lon="4.831826">
        <ele>-2.787028</ele>
        <time>2026-02-17T19:09:41.108Z</time>
      </trkpt>
      <trkpt lat="52.225586" lon="4.831322">
        <ele>-2.864284</ele>
        <time>2026-02-17T19:09:48.816Z</time>
      </trkpt>
      <trkpt lat="52.224454" lon="4.829887">
        <ele>-3.099928</ele>
        <time>2026-02-17T19:10:08.275Z</time>
      </trkpt>
      <trkpt lat="52.224285" lon="4.829707">
        <ele>-3.137040</ele>
        <time>2026-02-17T19:10:11.104Z</time>
      </trkpt>
      <trkpt lat="52.224004" lon="4.829508">
        <ele>-3.193373</ele>
        <time>2026-02-17T19:10:15.426Z</time>
      </trkpt>
      <trkpt lat="52.223879" lon="4.829447">
        <ele>-3.217367</ele>
        <time>2026-02-17T19:10:17.298Z</time>
      </trkpt>
      <trkpt lat="52.219996" lon="4.828563">
        <ele>-3.552286</ele>
        <time>2026-02-17T19:11:14.597Z</time>
      </trkpt>
      <trkpt lat="52.219201" lon="4.828331">
        <ele>-3.545313</ele>
        <time>2026-02-17T19:11:26.140Z</time>
      </trkpt>
      <trkpt lat="52.218408" lon="4.828011">
        <ele>-3.494907</ele>
        <time>2026-02-17T19:11:38.634Z</time>
      </trkpt>
      <trkpt lat="52.218270" lon="4.827916">
        <ele>-3.485666</ele>
        <time>2026-02-17T19:11:41.021Z</time>
      </trkpt>
      <trkpt lat="52.217791" lon="4.827225">
        <ele>-3.373369</ele>
        <time>2026-02-17T19:11:51.045Z</time>
      </trkpt>
      <trkpt lat="52.217438" lon="4.826659">
        <ele>-3.231603</ele>
        <time>2026-02-17T19:11:58.751Z</time>
      </trkpt>
      <trkpt lat="52.216959" lon="4.825898">
        <ele>-3.040096</ele>
        <time>2026-02-17T19:12:09.201Z</time>
      </trkpt>
      <trkpt lat="52.216223" lon="4.824914">
        <ele>-2.739619</ele>
        <time>2026-02-17T19:12:25.083Z</time>
      </trkpt>
      <trkpt lat="52.215959" lon="4.824448">
        <ele>-2.611259</ele>
        <time>2026-02-17T19:12:32.077Z</time>
      </trkpt>
      <trkpt lat="52.215568" lon="4.823678">
        <ele>-2.408998</ele>
        <time>2026-02-17T19:12:42.102Z</time>
      </trkpt>
      <trkpt lat="52.215515" lon="4.823581">
        <ele>-2.382712</ele>
        <time>2026-02-17T19:12:43.667Z</time>
      </trkpt>
      <trkpt lat="52.215151" lon="4.822995">
        <ele>-2.495629</ele>
        <time>2026-02-17T19:12:53.349Z</time>
      </trkpt>
      <trkpt lat="52.214937" lon="4.822751">
        <ele>-2.578900</ele>
        <time>2026-02-17T19:12:58.147Z</time>
      </trkpt>
      <trkpt lat="52.214783" lon="4.822589">
        <ele>-2.637343</ele>
        <time>2026-02-17T19:13:01.498Z</time>
      </trkpt>
      <trkpt lat="52.214597" lon="4.822414">
        <ele>-2.705827</ele>
        <time>2026-02-17T19:13:04.290Z</time>
      </trkpt>
      <trkpt lat="52.214541" lon="4.822353">
        <ele>-2.727304</ele>
        <time>2026-02-17T19:13:05.492Z</time>
      </trkpt>
      <trkpt lat="52.214117" lon="4.821812">
        <ele>-2.898981</ele>
        <time>2026-02-17T19:13:15.267Z</time>
      </trkpt>
      <trkpt lat="52.210922" lon="4.818002">
        <ele>-2.009874</ele>
        <time>2026-02-17T19:14:39.188Z</time>
      </trkpt>
      <trkpt lat="52.210726" lon="4.817714">
        <ele>-1.849653</ele>
        <time>2026-02-17T19:14:45.404Z</time>
      </trkpt>
      <trkpt lat="52.210300" lon="4.817020">
        <ele>-1.483986</ele>
        <time>2026-02-17T19:14:59.602Z</time>
      </trkpt>
      <trkpt lat="52.210251" lon="4.816797">
        <ele>-1.395798</ele>
        <time>2026-02-17T19:15:03.022Z</time>
      </trkpt>
      <trkpt lat="52.209958" lon="4.816097">
        <ele>-1.080232</ele>
        <time>2026-02-17T19:15:14.897Z</time>
      </trkpt>
      <trkpt lat="52.209758" lon="4.815486">
        <ele>-1.129263</ele>
        <time>2026-02-17T19:15:24.029Z</time>
      </trkpt>
      <trkpt lat="52.209490" lon="4.814437">
        <ele>-1.220376</ele>
        <time>2026-02-17T19:15:37.456Z</time>
      </trkpt>
      <trkpt lat="52.209493" lon="4.814330">
        <ele>-1.228963</ele>
        <time>2026-02-17T19:15:38.681Z</time>
      </trkpt>
      <trkpt lat="52.209487" lon="4.813949">
        <ele>-1.259517</ele>
        <time>2026-02-17T19:15:43.056Z</time>
      </trkpt>
      <trkpt lat="52.209461" lon="4.813765">
        <ele>-1.274656</ele>
        <time>2026-02-17T19:15:45.209Z</time>
      </trkpt>
      <trkpt lat="52.209447" lon="4.813689">
        <ele>-1.281018</ele>
        <time>2026-02-17T19:15:46.134Z</time>
      </trkpt>
      <trkpt lat="52.209367" lon="4.813264">
        <ele>-1.325190</ele>
        <time>2026-02-17T19:15:51.186Z</time>
      </trkpt>
      <trkpt lat="52.209343" lon="4.813155">
        <ele>-1.346726</ele>
        <time>2026-02-17T19:15:52.528Z</time>
      </trkpt>
      <trkpt lat="52.208879" lon="4.810898">
        <ele>-1.789372</ele>
        <time>2026-02-17T19:16:20.284Z</time>
      </trkpt>
      <trkpt lat="52.208594" lon="4.809569">
        <ele>-1.895131</ele>
        <time>2026-02-17T19:16:37.821Z</time>
      </trkpt>
      <trkpt lat="52.208475" lon="4.809245">
        <ele>-1.909224</ele>
        <time>2026-02-17T19:16:42.477Z</time>
      </trkpt>
      <trkpt lat="52.208268" lon="4.808498">
        <ele>-1.939812</ele>
        <time>2026-02-17T19:16:52.420Z</time>
      </trkpt>
      <trkpt lat="52.207861" lon="4.807130">
        <ele>-2.038885</ele>
        <time>2026-02-17T19:17:10.830Z</time>
      </trkpt>
      <trkpt lat="52.207821" lon="4.806851">
        <ele>-2.064138</ele>
        <time>2026-02-17T19:17:14.266Z</time>
      </trkpt>
      <trkpt lat="52.207365" lon="4.805313">
        <ele>-2.214718</ele>
        <time>2026-02-17T19:17:34.946Z</time>
      </trkpt>
      <trkpt lat="52.207265" lon="4.805047">
        <ele>-2.265511</ele>
        <time>2026-02-17T19:17:38.768Z</time>
      </trkpt>
      <trkpt lat="52.206594" lon="4.802745">
        <ele>-2.779695</ele>
        <time>2026-02-17T19:18:08.948Z</time>
      </trkpt>
      <trkpt lat="52.206242" lon="4.801434">
        <ele>-3.578156</ele>
        <time>2026-02-17T19:18:24.354Z</time>
      </trkpt>
      <trkpt lat="52.205883" lon="4.800279">
        <ele>-4.367335</ele>
        <time>2026-02-17T19:18:37.732Z</time>
      </trkpt>
      <trkpt lat="52.205761" lon="4.799978">
        <ele>-4.587245</ele>
        <time>2026-02-17T19:18:41.476Z</time>
      </trkpt>
      <trkpt lat="52.205525" lon="4.799068">
        <ele>-4.895385</ele>
        <time>2026-02-17T19:18:51.964Z</time>
      </trkpt>
      <trkpt lat="52.204627" lon="4.795265">
        <ele>-5.708361</ele>
        <time>2026-02-17T19:19:40.623Z</time>
      </trkpt>
      <trkpt lat="52.204603" lon="4.795170">
        <ele>-5.718855</ele>
        <time>2026-02-17T19:19:41.882Z</time>
      </trkpt>
      <trkpt lat="52.204543" lon="4.795015">
        <ele>-5.737578</ele>
        <time>2026-02-17T19:19:44.106Z</time>
      </trkpt>
      <trkpt lat="52.203212" lon="4.789568">
        <ele>-6.031181</ele>
        <time>2026-02-17T19:20:55.776Z</time>
      </trkpt>
      <trkpt lat="52.203182" lon="4.789378">
        <ele>-6.040443</ele>
        <time>2026-02-17T19:20:58.144Z</time>
      </trkpt>
      <trkpt lat="52.203150" lon="4.789256">
        <ele>-6.046708</ele>
        <time>2026-02-17T19:20:59.735Z</time>
      </trkpt>
      <trkpt lat="52.202236" lon="4.785625">
        <ele>-6.349552</ele>
        <time>2026-02-17T19:21:46.524Z</time>
      </trkpt>
      <trkpt lat="52.201921" lon="4.784485">
        <ele>-6.291392</ele>
        <time>2026-02-17T19:22:02.411Z</time>
      </trkpt>
      <trkpt lat="52.201685" lon="4.783709">
        <ele>-6.251102</ele>
        <time>2026-02-17T19:22:13.923Z</time>
      </trkpt>
      <trkpt lat="52.201604" lon="4.783568">
        <ele>-6.249604</ele>
        <time>2026-02-17T19:22:16.484Z</time>
      </trkpt>
      <trkpt lat="52.201497" lon="4.783530">
        <ele>-6.250835</ele>
        <time>2026-02-17T19:22:18.818Z</time>
      </trkpt>
      <trkpt lat="52.201460" lon="4.783452">
        <ele>-6.251515</ele>
        <time>2026-02-17T19:22:20.133Z</time>
      </trkpt>
      <trkpt lat="52.201439" lon="4.783372">
        <ele>-6.252115</ele>
        <time>2026-02-17T19:22:21.285Z</time>
      </trkpt>
      <trkpt lat="52.201393" lon="4.783224">
        <ele>-6.253259</ele>
        <time>2026-02-17T19:22:23.434Z</time>
      </trkpt>
      <trkpt lat="52.201225" lon="4.783531">
        <ele>-6.256095</ele>
        <time>2026-02-17T19:22:28.726Z</time>
      </trkpt>
      <trkpt lat="52.201203" lon="4.783639">
        <ele>-6.256880</ele>
        <time>2026-02-17T19:22:30.201Z</time>
      </trkpt>
      <trkpt lat="52.201098" lon="4.783710">
        <ele>-6.258158</ele>
        <time>2026-02-17T19:22:31.924Z</time>
      </trkpt>
      <trkpt lat="52.200951" lon="4.783819">
        <ele>-6.259974</ele>
        <time>2026-02-17T19:22:34.339Z</time>
      </trkpt>
      <trkpt lat="52.200676" lon="4.783990">
        <ele>-6.263283</ele>
        <time>2026-02-17T19:22:38.603Z</time>
      </trkpt>
      <trkpt lat="52.199583" lon="4.784681">
        <ele>-6.409846</ele>
        <time>2026-02-17T19:22:54.522Z</time>
      </trkpt>
      <trkpt lat="52.198737" lon="4.785199">
        <ele>-6.598318</ele>
        <time>2026-02-17T19:23:07.379Z</time>
      </trkpt>
      <trkpt lat="52.197559" lon="4.785946">
        <ele>-6.595115</ele>
        <time>2026-02-17T19:23:26.502Z</time>
      </trkpt>
      <trkpt lat="52.195811" lon="4.787028">
        <ele>-6.410681</ele>
        <time>2026-02-17T19:23:54.606Z</time>
      </trkpt>
      <trkpt lat="52.192942" lon="4.788814">
        <ele>-5.720406</ele>
        <time>2026-02-17T19:24:43.237Z</time>
      </trkpt>
      <trkpt lat="52.191981" lon="4.789420">
        <ele>-5.489109</ele>
        <time>2026-02-17T19:24:59.671Z</time>
      </trkpt>
      <trkpt lat="52.191485" lon="4.789732">
        <ele>-5.524993</ele>
        <time>2026-02-17T19:25:07.600Z</time>
      </trkpt>
      <trkpt lat="52.191214" lon="4.789903">
        <ele>-5.587733</ele>
        <time>2026-02-17T19:25:11.736Z</time>
      </trkpt>
      <trkpt lat="52.189235" lon="4.791117">
        <ele>-5.845250</ele>
        <time>2026-02-17T19:25:40.634Z</time>
      </trkpt>
      <trkpt lat="52.187431" lon="4.792266">
        <ele>-5.492041</ele>
        <time>2026-02-17T19:26:12.390Z</time>
      </trkpt>
      <trkpt lat="52.183239" lon="4.794873">
        <ele>-4.646658</ele>
        <time>2026-02-17T19:27:22.477Z</time>
      </trkpt>
      <trkpt lat="52.183206" lon="4.794893">
        <ele>-4.658283</ele>
        <time>2026-02-17T19:27:22.982Z</time>
      </trkpt>
      <trkpt lat="52.183119" lon="4.794900">
        <ele>-4.687047</ele>
        <time>2026-02-17T19:27:24.271Z</time>
      </trkpt>
      <trkpt lat="52.182980" lon="4.794987">
        <ele>-4.736211</ele>
        <time>2026-02-17T19:27:26.417Z</time>
      </trkpt>
      <trkpt lat="52.182969" lon="4.794946">
        <ele>-4.745273</ele>
        <time>2026-02-17T19:27:26.799Z</time>
      </trkpt>
      <trkpt lat="52.182926" lon="4.794783">
        <ele>-4.781200</ele>
        <time>2026-02-17T19:27:28.345Z</time>
      </trkpt>
      <trkpt lat="52.182866" lon="4.794657">
        <ele>-4.813502</ele>
        <time>2026-02-17T19:27:29.715Z</time>
      </trkpt>
      <trkpt lat="52.181386" lon="4.788661">
        <ele>-5.572424</ele>
        <time>2026-02-17T19:28:23.245Z</time>
      </trkpt>
      <trkpt lat="52.180802" lon="4.786295">
        <ele>-4.612773</ele>
        <time>2026-02-17T19:28:52.800Z</time>
      </trkpt>
      <trkpt lat="52.180454" lon="4.784886">
        <ele>-3.685919</ele>
        <time>2026-02-17T19:29:10.973Z</time>
      </trkpt>
      <trkpt lat="52.180372" lon="4.783875">
        <ele>-3.749663</ele>
        <time>2026-02-17T19:29:21.369Z</time>
      </trkpt>
      <trkpt lat="52.180267" lon="4.783266">
        <ele>-3.821161</ele>
        <time>2026-02-17T19:29:26.779Z</time>
      </trkpt>
      <trkpt lat="52.180014" lon="4.782669">
        <ele>-3.903181</ele>
        <time>2026-02-17T19:29:32.549Z</time>
      </trkpt>
      <trkpt lat="52.179826" lon="4.782211">
        <ele>-3.965472</ele>
        <time>2026-02-17T19:29:36.755Z</time>
      </trkpt>
      <trkpt lat="52.179754" lon="4.781991">
        <ele>-4.032505</ele>
        <time>2026-02-17T19:29:38.624Z</time>
      </trkpt>
      <trkpt lat="52.179681" lon="4.781751">
        <ele>-4.122558</ele>
        <time>2026-02-17T19:29:40.595Z</time>
      </trkpt>
      <trkpt lat="52.179662" lon="4.781682">
        <ele>-4.147983</ele>
        <time>2026-02-17T19:29:41.151Z</time>
      </trkpt>
      <trkpt lat="52.179622" lon="4.781531">
        <ele>-4.203274</ele>
        <time>2026-02-17T19:29:42.358Z</time>
      </trkpt>
      <trkpt lat="52.179567" lon="4.781332">
        <ele>-4.276647</ele>
        <time>2026-02-17T19:29:43.969Z</time>
      </trkpt>
      <trkpt lat="52.179491" lon="4.781280">
        <ele>-4.321827</ele>
        <time>2026-02-17T19:29:45.398Z</time>
      </trkpt>
      <trkpt lat="52.179053" lon="4.779534">
        <ele>-4.955948</ele>
        <time>2026-02-17T19:30:07.436Z</time>
      </trkpt>
      <trkpt lat="52.178860" lon="4.778778">
        <ele>-5.079393</ele>
        <time>2026-02-17T19:30:17.277Z</time>
      </trkpt>
      <trkpt lat="52.178816" lon="4.778676">
        <ele>-5.097850</ele>
        <time>2026-02-17T19:30:18.785Z</time>
      </trkpt>
      <trkpt lat="52.178781" lon="4.778603">
        <ele>-5.111565</ele>
        <time>2026-02-17T19:30:19.907Z</time>
      </trkpt>
      <trkpt lat="52.178751" lon="4.778458">
        <ele>-5.134213</ele>
        <time>2026-02-17T19:30:21.783Z</time>
      </trkpt>
      <trkpt lat="52.178711" lon="4.778283">
        <ele>-5.161854</ele>
        <time>2026-02-17T19:30:24.070Z</time>
      </trkpt>
      <trkpt lat="52.178588" lon="4.777928">
        <ele>-5.222201</ele>
        <time>2026-02-17T19:30:29.058Z</time>
      </trkpt>
      <trkpt lat="52.177686" lon="4.774205">
        <ele>-5.999977</ele>
        <time>2026-02-17T19:31:15.459Z</time>
      </trkpt>
      <trkpt lat="52.176911" lon="4.771014">
        <ele>-5.962764</ele>
        <time>2026-02-17T19:31:57.717Z</time>
      </trkpt>
      <trkpt lat="52.176722" lon="4.770516">
        <ele>-5.850155</ele>
        <time>2026-02-17T19:32:05.714Z</time>
      </trkpt>
      <trkpt lat="52.176618" lon="4.769965">
        <ele>-5.739304</ele>
        <time>2026-02-17T19:32:13.576Z</time>
      </trkpt>
      <trkpt lat="52.176552" lon="4.769919">
        <ele>-5.716798</ele>
        <time>2026-02-17T19:32:15.173Z</time>
      </trkpt>
      <trkpt lat="52.176539" lon="4.769866">
        <ele>-5.705823</ele>
        <time>2026-02-17T19:32:15.927Z</time>
      </trkpt>
      <trkpt lat="52.176533" lon="4.769835">
        <ele>-5.699572</ele>
        <time>2026-02-17T19:32:16.366Z</time>
      </trkpt>
      <trkpt lat="52.176516" lon="4.769735">
        <ele>-5.679619</ele>
        <time>2026-02-17T19:32:17.788Z</time>
      </trkpt>
      <trkpt lat="52.176491" lon="4.769587">
        <ele>-5.650102</ele>
        <time>2026-02-17T19:32:19.851Z</time>
      </trkpt>
      <trkpt lat="52.176473" lon="4.769477">
        <ele>-5.628211</ele>
        <time>2026-02-17T19:32:21.408Z</time>
      </trkpt>
      <trkpt lat="52.176643" lon="4.769361">
        <ele>-5.570428</ele>
        <time>2026-02-17T19:32:25.446Z</time>
      </trkpt>
      <trkpt lat="52.176595" lon="4.769160">
        <ele>-5.528953</ele>
        <time>2026-02-17T19:32:27.643Z</time>
      </trkpt>
      <trkpt lat="52.176461" lon="4.768566">
        <ele>-5.490632</ele>
        <time>2026-02-17T19:32:34.051Z</time>
      </trkpt>
      <trkpt lat="52.175245" lon="4.763549">
        <ele>-5.801495</ele>
        <time>2026-02-17T19:33:21.034Z</time>
      </trkpt>
      <trkpt lat="52.174724" lon="4.761419">
        <ele>-5.672367</ele>
        <time>2026-02-17T19:33:43.126Z</time>
      </trkpt>
      <trkpt lat="52.174398" lon="4.760083">
        <ele>-5.642538</ele>
        <time>2026-02-17T19:33:56.055Z</time>
      </trkpt>
      <trkpt lat="52.174231" lon="4.759395">
        <ele>-5.660931</ele>
        <time>2026-02-17T19:34:02.539Z</time>
      </trkpt>
      <trkpt lat="52.172818" lon="4.753606">
        <ele>-5.706410</ele>
        <time>2026-02-17T19:34:58.601Z</time>
      </trkpt>
      <trkpt lat="52.172811" lon="4.753579">
        <ele>-5.705352</ele>
        <time>2026-02-17T19:34:58.905Z</time>
      </trkpt>
      <trkpt lat="52.172762" lon="4.753370">
        <ele>-5.697278</ele>
        <time>2026-02-17T19:35:01.151Z</time>
      </trkpt>
      <trkpt lat="52.172663" lon="4.752968">
        <ele>-5.681645</ele>
        <time>2026-02-17T19:35:05.479Z</time>
      </trkpt>
      <trkpt lat="52.172025" lon="4.750370">
        <ele>-5.621204</ele>
        <time>2026-02-17T19:35:30.524Z</time>
      </trkpt>
      <trkpt lat="52.171456" lon="4.748015">
        <ele>-5.419423</ele>
        <time>2026-02-17T19:35:54.905Z</time>
      </trkpt>
      <trkpt lat="52.171348" lon="4.747567">
        <ele>-5.372223</ele>
        <time>2026-02-17T19:35:59.661Z</time>
      </trkpt>
      <trkpt lat="52.169056" lon="4.738180">
        <ele>-5.197244</ele>
        <time>2026-02-17T19:37:32.146Z</time>
      </trkpt>
      <trkpt lat="52.169044" lon="4.738120">
        <ele>-5.196613</ele>
        <time>2026-02-17T19:37:32.732Z</time>
      </trkpt>
      <trkpt lat="52.169021" lon="4.738005">
        <ele>-5.195404</ele>
        <time>2026-02-17T19:37:33.842Z</time>
      </trkpt>
      <trkpt lat="52.168359" lon="4.738422">
        <ele>-5.183842</ele>
        <time>2026-02-17T19:37:48.281Z</time>
      </trkpt>
      <trkpt lat="52.168081" lon="4.738600">
        <ele>-5.178976</ele>
        <time>2026-02-17T19:37:54.266Z</time>
      </trkpt>
      <trkpt lat="52.162771" lon="4.741913">
        <ele>-6.248308</ele>
        <time>2026-02-17T19:39:44.801Z</time>
      </trkpt>
      <trkpt lat="52.162709" lon="4.741950">
        <ele>-6.252949</ele>
        <time>2026-02-17T19:39:46.179Z</time>
      </trkpt>
      <trkpt lat="52.162598" lon="4.742016">
        <ele>-6.261255</ele>
        <time>2026-02-17T19:39:48.603Z</time>
      </trkpt>
      <trkpt lat="52.161852" lon="4.742477">
        <ele>-6.317337</ele>
        <time>2026-02-17T19:40:04.886Z</time>
      </trkpt>
      <trkpt lat="52.161107" lon="4.742941">
        <ele>-6.351581</ele>
        <time>2026-02-17T19:40:20.416Z</time>
      </trkpt>
      <trkpt lat="52.160144" lon="4.743544">
        <ele>-6.154855</ele>
        <time>2026-02-17T19:40:41.490Z</time>
      </trkpt>
      <trkpt lat="52.159026" lon="4.744239">
        <ele>-6.024262</ele>
        <time>2026-02-17T19:41:08.313Z</time>
      </trkpt>
      <trkpt lat="52.158015" lon="4.744863">
        <ele>-6.023713</ele>
        <time>2026-02-17T19:41:29.600Z</time>
      </trkpt>
      <trkpt lat="52.157537" lon="4.745160">
        <ele>-6.062099</ele>
        <time>2026-02-17T19:41:38.975Z</time>
      </trkpt>
      <trkpt lat="52.156236" lon="4.745981">
        <ele>-6.236979</ele>
        <time>2026-02-17T19:42:06.815Z</time>
      </trkpt>
      <trkpt lat="52.156012" lon="4.746122">
        <ele>-6.253030</ele>
        <time>2026-02-17T19:42:11.792Z</time>
      </trkpt>
      <trkpt lat="52.155913" lon="4.746184">
        <ele>-6.255950</ele>
        <time>2026-02-17T19:42:13.956Z</time>
      </trkpt>
      <trkpt lat="52.154880" lon="4.746828">
        <ele>-6.286402</ele>
        <time>2026-02-17T19:42:35.913Z</time>
      </trkpt>
      <trkpt lat="52.154568" lon="4.747024">
        <ele>-6.295608</ele>
        <time>2026-02-17T19:42:42.439Z</time>
      </trkpt>
      <trkpt lat="52.152424" lon="4.748363">
        <ele>-5.949711</ele>
        <time>2026-02-17T19:43:30.830Z</time>
      </trkpt>
      <trkpt lat="52.151733" lon="4.748796">
        <ele>-5.890387</ele>
        <time>2026-02-17T19:43:46.460Z</time>
      </trkpt>
      <trkpt lat="52.151407" lon="4.749000">
        <ele>-5.862404</ele>
        <time>2026-02-17T19:43:53.392Z</time>
      </trkpt>
      <trkpt lat="52.151055" lon="4.749220">
        <ele>-5.829574</ele>
        <time>2026-02-17T19:44:00.857Z</time>
      </trkpt>
      <trkpt lat="52.150534" lon="4.749545">
        <ele>-5.759071</ele>
        <time>2026-02-17T19:44:11.552Z</time>
      </trkpt>
      <trkpt lat="52.148267" lon="4.750950">
        <ele>-5.394268</ele>
        <time>2026-02-17T19:45:03.812Z</time>
      </trkpt>
      <trkpt lat="52.147869" lon="4.751196">
        <ele>-5.320487</ele>
        <time>2026-02-17T19:45:12.475Z</time>
      </trkpt>
      <trkpt lat="52.147560" lon="4.751387">
        <ele>-5.329469</ele>
        <time>2026-02-17T19:45:18.711Z</time>
      </trkpt>
      <trkpt lat="52.147513" lon="4.751416">
        <ele>-5.337514</ele>
        <time>2026-02-17T19:45:19.642Z</time>
      </trkpt>
      <trkpt lat="52.147466" lon="4.751451">
        <ele>-5.345786</ele>
        <time>2026-02-17T19:45:20.614Z</time>
      </trkpt>
      <trkpt lat="52.147278" lon="4.751375">
        <ele>-5.376794</ele>
        <time>2026-02-17T19:45:24.323Z</time>
      </trkpt>
      <trkpt lat="52.147195" lon="4.751298">
        <ele>-5.392083</ele>
        <time>2026-02-17T19:45:26.145Z</time>
      </trkpt>
      <trkpt lat="52.147140" lon="4.751191">
        <ele>-5.405795</ele>
        <time>2026-02-17T19:45:27.785Z</time>
      </trkpt>
      <trkpt lat="52.147088" lon="4.751223">
        <ele>-5.414693</ele>
        <time>2026-02-17T19:45:28.866Z</time>
      </trkpt>
      <trkpt lat="52.147027" lon="4.751263">
        <ele>-5.425219</ele>
        <time>2026-02-17T19:45:30.153Z</time>
      </trkpt>
      <trkpt lat="52.146993" lon="4.751286">
        <ele>-5.431112</ele>
        <time>2026-02-17T19:45:30.860Z</time>
      </trkpt>
      <trkpt lat="52.146990" lon="4.751401">
        <ele>-5.442419</ele>
        <time>2026-02-17T19:45:32.261Z</time>
      </trkpt>
      <trkpt lat="52.146949" lon="4.751577">
        <ele>-5.460912</ele>
        <time>2026-02-17T19:45:34.527Z</time>
      </trkpt>
      <trkpt lat="52.146750" lon="4.751892">
        <ele>-5.505324</ele>
        <time>2026-02-17T19:45:39.930Z</time>
      </trkpt>
      <trkpt lat="52.146526" lon="4.752032">
        <ele>-5.543730</ele>
        <time>2026-02-17T19:45:44.605Z</time>
      </trkpt>
      <trkpt lat="52.146090" lon="4.752303">
        <ele>-5.616536</ele>
        <time>2026-02-17T19:45:53.934Z</time>
      </trkpt>
      <trkpt lat="52.145729" lon="4.752528">
        <ele>-5.674840</ele>
        <time>2026-02-17T19:46:01.984Z</time>
      </trkpt>
      <trkpt lat="52.145130" lon="4.752901">
        <ele>-5.771571</ele>
        <time>2026-02-17T19:46:14.809Z</time>
      </trkpt>
      <trkpt lat="52.144876" lon="4.753059">
        <ele>-5.812583</ele>
        <time>2026-02-17T19:46:19.942Z</time>
      </trkpt>
      <trkpt lat="52.143878" lon="4.753691">
        <ele>-5.930148</ele>
        <time>2026-02-17T19:46:39.902Z</time>
      </trkpt>
      <trkpt lat="52.138670" lon="4.756948">
        <ele>-6.293348</ele>
        <time>2026-02-17T19:48:31.796Z</time>
      </trkpt>
      <trkpt lat="52.135901" lon="4.758692">
        <ele>-5.671619</ele>
        <time>2026-02-17T19:49:34.536Z</time>
      </trkpt>
      <trkpt lat="52.135134" lon="4.759143">
        <ele>-5.254213</ele>
        <time>2026-02-17T19:49:52.645Z</time>
      </trkpt>
      <trkpt lat="52.134669" lon="4.759299">
        <ele>-5.011191</ele>
        <time>2026-02-17T19:50:03.241Z</time>
      </trkpt>
      <trkpt lat="52.133715" lon="4.759520">
        <ele>-4.129583</ele>
        <time>2026-02-17T19:50:25.923Z</time>
      </trkpt>
      <trkpt lat="52.132934" lon="4.759631">
        <ele>-3.340876</ele>
        <time>2026-02-17T19:50:45.437Z</time>
      </trkpt>
      <trkpt lat="52.132213" lon="4.759785">
        <ele>-2.589054</ele>
        <time>2026-02-17T19:51:03.864Z</time>
      </trkpt>
      <trkpt lat="52.131505" lon="4.759903">
        <ele>-1.844132</ele>
        <time>2026-02-17T19:51:21.252Z</time>
      </trkpt>
      <trkpt lat="52.131376" lon="4.759961">
        <ele>-1.704061</ele>
        <time>2026-02-17T19:51:24.474Z</time>
      </trkpt>
      <trkpt lat="52.131442" lon="4.760116">
        <ele>-1.582858</ele>
        <time>2026-02-17T19:51:27.252Z</time>
      </trkpt>
      <trkpt lat="52.131498" lon="4.760249">
        <ele>-1.479233</ele>
        <time>2026-02-17T19:51:29.634Z</time>
      </trkpt>
      <trkpt lat="52.131576" lon="4.760434">
        <ele>-1.335032</ele>
        <time>2026-02-17T19:51:32.874Z</time>
      </trkpt>
      <trkpt lat="52.131623" lon="4.760546">
        <ele>-1.247863</ele>
        <time>2026-02-17T19:51:34.776Z</time>
      </trkpt>
      <trkpt lat="52.131684" lon="4.760692">
        <ele>-1.228091</ele>
        <time>2026-02-17T19:51:37.327Z</time>
      </trkpt>
      <trkpt lat="52.131736" lon="4.760815">
        <ele>-1.228091</ele>
        <time>2026-02-17T19:51:39.472Z</time>
      </trkpt>
      <trkpt lat="52.131913" lon="4.761236">
        <ele>-1.228091</ele>
        <time>2026-02-17T19:51:46.679Z</time>
      </trkpt>
      <trkpt lat="52.132068" lon="4.761606">
        <ele>-1.228091</ele>
        <time>2026-02-17T19:51:52.875Z</time>
      </trkpt>
      <trkpt lat="52.132129" lon="4.761750">
        <ele>-1.228091</ele>
        <time>2026-02-17T19:51:55.209Z</time>
      </trkpt>
      <trkpt lat="52.132219" lon="4.761967">
        <ele>-1.228091</ele>
        <time>2026-02-17T19:51:58.677Z</time>
      </trkpt>
      <trkpt lat="52.132380" lon="4.762353">
        <ele>-1.228091</ele>
        <time>2026-02-17T19:52:04.859Z</time>
      </trkpt>
      <trkpt lat="52.132495" lon="4.762599">
        <ele>-1.228091</ele>
        <time>2026-02-17T19:52:08.804Z</time>
      </trkpt>
      <trkpt lat="52.132551" lon="4.762695">
        <ele>-1.228091</ele>
        <time>2026-02-17T19:52:10.461Z</time>
      </trkpt>
      <trkpt lat="52.132726" lon="4.762964">
        <ele>-1.228091</ele>
        <time>2026-02-17T19:52:15.285Z</time>
      </trkpt>
    </trkseg>
  </trk>
</gpx>